<?xml version="1.0" encoding="UTF-8" standalone="no" ?>
<gpx xmlns="http://www.topografix.com/GPX/1/1" xmlns:xsi="http://www.w3.org/2001/XMLSchema-instance" xsi:schemaLocation="http://www.topografix.com/GPX/1/1 http://www.topografix.com/GPX/1/1/gpx.xsd" version="1.1" creator="VisuGPX - https://www.visugpx.com">
  <metadata>
    <name>forêt de chaux</name>
    <desc><![CDATA[Randonnée humide]]></desc>
  </metadata>
  <trk>
    <name><![CDATA[foret de chaux 3]]></name>
    <trkseg>
      <trkpt lat="47.07431" lon="5.52507">
        <ele>186</ele>
        <time>2012-11-08T13:45:40Z</time>
      </trkpt>
      <trkpt lat="47.0742" lon="5.52526">
        <ele>185</ele>
        <time>2012-11-08T13:45:59Z</time>
      </trkpt>
      <trkpt lat="47.07414" lon="5.52546">
        <ele>184</ele>
        <time>2012-11-08T13:46:12Z</time>
      </trkpt>
      <trkpt lat="47.07409" lon="5.52572">
        <ele>183</ele>
        <time>2012-11-08T13:46:28Z</time>
      </trkpt>
      <trkpt lat="47.07399" lon="5.52593">
        <ele>182</ele>
        <time>2012-11-08T13:46:43Z</time>
      </trkpt>
      <trkpt lat="47.07389" lon="5.52606">
        <ele>181</ele>
        <time>2012-11-08T13:46:57Z</time>
      </trkpt>
      <trkpt lat="47.0738" lon="5.5262">
        <ele>181</ele>
        <time>2012-11-08T13:47:05Z</time>
      </trkpt>
      <trkpt lat="47.0738" lon="5.52631">
        <ele>181</ele>
        <time>2012-11-08T13:47:17Z</time>
      </trkpt>
      <trkpt lat="47.07382" lon="5.52658">
        <ele>180</ele>
        <time>2012-11-08T13:47:37Z</time>
      </trkpt>
      <trkpt lat="47.07384" lon="5.52663">
        <ele>180</ele>
        <time>2012-11-08T13:47:41Z</time>
      </trkpt>
      <trkpt lat="47.07388" lon="5.52697">
        <ele>181</ele>
        <time>2012-11-08T13:48:05Z</time>
      </trkpt>
      <trkpt lat="47.07402" lon="5.52721">
        <ele>182</ele>
        <time>2012-11-08T13:48:26Z</time>
      </trkpt>
      <trkpt lat="47.07408" lon="5.5274">
        <ele>180</ele>
        <time>2012-11-08T13:48:49Z</time>
      </trkpt>
      <trkpt lat="47.07414" lon="5.52767">
        <ele>179</ele>
        <time>2012-11-08T13:49:05Z</time>
      </trkpt>
      <trkpt lat="47.07427" lon="5.52791">
        <ele>180</ele>
        <time>2012-11-08T13:49:22Z</time>
      </trkpt>
      <trkpt lat="47.07425" lon="5.52827">
        <ele>183</ele>
        <time>2012-11-08T13:49:45Z</time>
      </trkpt>
      <trkpt lat="47.0742" lon="5.52855">
        <ele>187</ele>
        <time>2012-11-08T13:49:52Z</time>
      </trkpt>
      <trkpt lat="47.07422" lon="5.52858">
        <ele>191</ele>
        <time>2012-11-08T13:49:55Z</time>
      </trkpt>
      <trkpt lat="47.07423" lon="5.52859">
        <ele>194</ele>
        <time>2012-11-08T13:49:58Z</time>
      </trkpt>
      <trkpt lat="47.07425" lon="5.52862">
        <ele>198</ele>
        <time>2012-11-08T13:50:02Z</time>
      </trkpt>
      <trkpt lat="47.07425" lon="5.52873">
        <ele>201</ele>
        <time>2012-11-08T13:50:06Z</time>
      </trkpt>
      <trkpt lat="47.07425" lon="5.52878">
        <ele>204</ele>
        <time>2012-11-08T13:50:10Z</time>
      </trkpt>
      <trkpt lat="47.07426" lon="5.52882">
        <ele>208</ele>
        <time>2012-11-08T13:50:15Z</time>
      </trkpt>
      <trkpt lat="47.0743" lon="5.52886">
        <ele>211</ele>
        <time>2012-11-08T13:50:21Z</time>
      </trkpt>
      <trkpt lat="47.07431" lon="5.52886">
        <ele>211</ele>
        <time>2012-11-08T13:50:22Z</time>
      </trkpt>
      <trkpt lat="47.07434" lon="5.52891">
        <ele>213</ele>
        <time>2012-11-08T13:50:26Z</time>
      </trkpt>
      <trkpt lat="47.0744" lon="5.52896">
        <ele>216</ele>
        <time>2012-11-08T13:50:34Z</time>
      </trkpt>
      <trkpt lat="47.07432" lon="5.52909">
        <ele>219</ele>
        <time>2012-11-08T13:50:43Z</time>
      </trkpt>
      <trkpt lat="47.0743" lon="5.52914">
        <ele>220</ele>
        <time>2012-11-08T13:50:46Z</time>
      </trkpt>
      <trkpt lat="47.07428" lon="5.52921">
        <ele>223</ele>
        <time>2012-11-08T13:50:52Z</time>
      </trkpt>
      <trkpt lat="47.07428" lon="5.52922">
        <ele>223</ele>
        <time>2012-11-08T13:50:53Z</time>
      </trkpt>
      <trkpt lat="47.07429" lon="5.52927">
        <ele>224</ele>
        <time>2012-11-08T13:50:55Z</time>
      </trkpt>
      <trkpt lat="47.07433" lon="5.52935">
        <ele>227</ele>
        <time>2012-11-08T13:51:03Z</time>
      </trkpt>
      <trkpt lat="47.07434" lon="5.52937">
        <ele>227</ele>
        <time>2012-11-08T13:51:04Z</time>
      </trkpt>
      <trkpt lat="47.07439" lon="5.52947">
        <ele>231</ele>
        <time>2012-11-08T13:51:13Z</time>
      </trkpt>
      <trkpt lat="47.07443" lon="5.52957">
        <ele>234</ele>
        <time>2012-11-08T13:51:23Z</time>
      </trkpt>
      <trkpt lat="47.0745" lon="5.52968">
        <ele>238</ele>
        <time>2012-11-08T13:51:34Z</time>
      </trkpt>
      <trkpt lat="47.0745" lon="5.5301">
        <ele>240</ele>
        <time>2012-11-08T13:51:56Z</time>
      </trkpt>
      <trkpt lat="47.07462" lon="5.5305">
        <ele>241</ele>
        <time>2012-11-08T13:52:16Z</time>
      </trkpt>
      <trkpt lat="47.07459" lon="5.53069">
        <ele>241</ele>
        <time>2012-11-08T13:52:33Z</time>
      </trkpt>
      <trkpt lat="47.07468" lon="5.53084">
        <ele>241</ele>
        <time>2012-11-08T13:52:47Z</time>
      </trkpt>
      <trkpt lat="47.0747" lon="5.53096">
        <ele>241</ele>
        <time>2012-11-08T13:53:02Z</time>
      </trkpt>
      <trkpt lat="47.07475" lon="5.53111">
        <ele>241</ele>
        <time>2012-11-08T13:53:18Z</time>
      </trkpt>
      <trkpt lat="47.07476" lon="5.53122">
        <ele>241</ele>
        <time>2012-11-08T13:53:30Z</time>
      </trkpt>
      <trkpt lat="47.07482" lon="5.53135">
        <ele>241</ele>
        <time>2012-11-08T13:53:50Z</time>
      </trkpt>
      <trkpt lat="47.07492" lon="5.53149">
        <ele>242</ele>
        <time>2012-11-08T13:54:07Z</time>
      </trkpt>
      <trkpt lat="47.07494" lon="5.532">
        <ele>242</ele>
        <time>2012-11-08T13:54:28Z</time>
      </trkpt>
      <trkpt lat="47.07493" lon="5.53241">
        <ele>242</ele>
        <time>2012-11-08T13:54:47Z</time>
      </trkpt>
      <trkpt lat="47.07495" lon="5.53269">
        <ele>242</ele>
        <time>2012-11-08T13:55:05Z</time>
      </trkpt>
      <trkpt lat="47.07497" lon="5.53296">
        <ele>243</ele>
        <time>2012-11-08T13:55:24Z</time>
      </trkpt>
      <trkpt lat="47.07505" lon="5.53341">
        <ele>243</ele>
        <time>2012-11-08T13:55:43Z</time>
      </trkpt>
      <trkpt lat="47.07511" lon="5.53354">
        <ele>243</ele>
        <time>2012-11-08T13:55:53Z</time>
      </trkpt>
      <trkpt lat="47.07519" lon="5.5338">
        <ele>243</ele>
        <time>2012-11-08T13:56:10Z</time>
      </trkpt>
      <trkpt lat="47.07527" lon="5.53413">
        <ele>243</ele>
        <time>2012-11-08T13:56:29Z</time>
      </trkpt>
      <trkpt lat="47.07528" lon="5.53424">
        <ele>243</ele>
        <time>2012-11-08T13:56:38Z</time>
      </trkpt>
      <trkpt lat="47.07534" lon="5.53444">
        <ele>243</ele>
        <time>2012-11-08T13:56:53Z</time>
      </trkpt>
      <trkpt lat="47.07537" lon="5.53464">
        <ele>243</ele>
        <time>2012-11-08T13:57:13Z</time>
      </trkpt>
      <trkpt lat="47.07532" lon="5.53455">
        <ele>243</ele>
        <time>2012-11-08T13:58:18Z</time>
      </trkpt>
      <trkpt lat="47.07514" lon="5.5348">
        <ele>243</ele>
        <time>2012-11-08T13:58:42Z</time>
      </trkpt>
      <trkpt lat="47.07511" lon="5.53485">
        <ele>243</ele>
        <time>2012-11-08T13:58:46Z</time>
      </trkpt>
      <trkpt lat="47.07507" lon="5.5349">
        <ele>243</ele>
        <time>2012-11-08T13:58:51Z</time>
      </trkpt>
      <trkpt lat="47.07505" lon="5.53492">
        <ele>243</ele>
        <time>2012-11-08T13:58:53Z</time>
      </trkpt>
      <trkpt lat="47.07504" lon="5.53498">
        <ele>243</ele>
        <time>2012-11-08T13:58:57Z</time>
      </trkpt>
      <trkpt lat="47.07489" lon="5.53507">
        <ele>243</ele>
        <time>2012-11-08T13:59:10Z</time>
      </trkpt>
      <trkpt lat="47.07485" lon="5.53509">
        <ele>243</ele>
        <time>2012-11-08T13:59:13Z</time>
      </trkpt>
      <trkpt lat="47.07476" lon="5.53513">
        <ele>243</ele>
        <time>2012-11-08T13:59:20Z</time>
      </trkpt>
      <trkpt lat="47.0747" lon="5.53516">
        <ele>243</ele>
        <time>2012-11-08T13:59:25Z</time>
      </trkpt>
      <trkpt lat="47.0746" lon="5.53523">
        <ele>242</ele>
        <time>2012-11-08T13:59:34Z</time>
      </trkpt>
      <trkpt lat="47.07458" lon="5.53525">
        <ele>243</ele>
        <time>2012-11-08T13:59:36Z</time>
      </trkpt>
      <trkpt lat="47.07453" lon="5.53527">
        <ele>242</ele>
        <time>2012-11-08T13:59:41Z</time>
      </trkpt>
      <trkpt lat="47.07442" lon="5.53534">
        <ele>242</ele>
        <time>2012-11-08T13:59:53Z</time>
      </trkpt>
      <trkpt lat="47.07438" lon="5.53538">
        <ele>242</ele>
        <time>2012-11-08T13:59:58Z</time>
      </trkpt>
      <trkpt lat="47.07425" lon="5.53549">
        <ele>241</ele>
        <time>2012-11-08T14:00:17Z</time>
      </trkpt>
      <trkpt lat="47.07432" lon="5.53571">
        <ele>240</ele>
        <time>2012-11-08T14:00:35Z</time>
      </trkpt>
      <trkpt lat="47.07437" lon="5.53579">
        <ele>240</ele>
        <time>2012-11-08T14:00:44Z</time>
      </trkpt>
      <trkpt lat="47.07446" lon="5.53605">
        <ele>239</ele>
        <time>2012-11-08T14:01:06Z</time>
      </trkpt>
      <trkpt lat="47.0745" lon="5.53647">
        <ele>237</ele>
        <time>2012-11-08T14:01:27Z</time>
      </trkpt>
      <trkpt lat="47.07456" lon="5.5367">
        <ele>235</ele>
        <time>2012-11-08T14:01:46Z</time>
      </trkpt>
      <trkpt lat="47.0746" lon="5.53688">
        <ele>235</ele>
        <time>2012-11-08T14:02:07Z</time>
      </trkpt>
      <trkpt lat="47.07464" lon="5.53709">
        <ele>234</ele>
        <time>2012-11-08T14:02:26Z</time>
      </trkpt>
      <trkpt lat="47.07466" lon="5.53725">
        <ele>234</ele>
        <time>2012-11-08T14:02:44Z</time>
      </trkpt>
      <trkpt lat="47.07464" lon="5.53734">
        <ele>234</ele>
        <time>2012-11-08T14:02:57Z</time>
      </trkpt>
      <trkpt lat="47.07474" lon="5.53755">
        <ele>235</ele>
        <time>2012-11-08T14:03:13Z</time>
      </trkpt>
      <trkpt lat="47.07483" lon="5.53776">
        <ele>234</ele>
        <time>2012-11-08T14:03:30Z</time>
      </trkpt>
      <trkpt lat="47.07498" lon="5.53805">
        <ele>235</ele>
        <time>2012-11-08T14:03:53Z</time>
      </trkpt>
      <trkpt lat="47.07496" lon="5.53833">
        <ele>237</ele>
        <time>2012-11-08T14:04:10Z</time>
      </trkpt>
      <trkpt lat="47.07498" lon="5.53868">
        <ele>238</ele>
        <time>2012-11-08T14:04:25Z</time>
      </trkpt>
      <trkpt lat="47.07506" lon="5.53899">
        <ele>240</ele>
        <time>2012-11-08T14:04:44Z</time>
      </trkpt>
      <trkpt lat="47.07512" lon="5.53926">
        <ele>240</ele>
        <time>2012-11-08T14:05:06Z</time>
      </trkpt>
      <trkpt lat="47.07516" lon="5.5394">
        <ele>241</ele>
        <time>2012-11-08T14:05:17Z</time>
      </trkpt>
      <trkpt lat="47.07524" lon="5.5396">
        <ele>241</ele>
        <time>2012-11-08T14:05:31Z</time>
      </trkpt>
      <trkpt lat="47.07529" lon="5.53979">
        <ele>241</ele>
        <time>2012-11-08T14:05:42Z</time>
      </trkpt>
      <trkpt lat="47.07539" lon="5.54004">
        <ele>240</ele>
        <time>2012-11-08T14:06:00Z</time>
      </trkpt>
      <trkpt lat="47.0754" lon="5.54011">
        <ele>240</ele>
        <time>2012-11-08T14:06:04Z</time>
      </trkpt>
      <trkpt lat="47.0754" lon="5.54028">
        <ele>238</ele>
        <time>2012-11-08T14:06:18Z</time>
      </trkpt>
      <trkpt lat="47.07548" lon="5.54039">
        <ele>238</ele>
        <time>2012-11-08T14:06:25Z</time>
      </trkpt>
      <trkpt lat="47.07551" lon="5.54064">
        <ele>237</ele>
        <time>2012-11-08T14:06:40Z</time>
      </trkpt>
      <trkpt lat="47.07553" lon="5.54073">
        <ele>237</ele>
        <time>2012-11-08T14:06:44Z</time>
      </trkpt>
      <trkpt lat="47.07555" lon="5.5411">
        <ele>236</ele>
        <time>2012-11-08T14:07:02Z</time>
      </trkpt>
      <trkpt lat="47.07559" lon="5.54125">
        <ele>233</ele>
        <time>2012-11-08T14:07:17Z</time>
      </trkpt>
      <trkpt lat="47.07556" lon="5.54152">
        <ele>233</ele>
        <time>2012-11-08T14:07:35Z</time>
      </trkpt>
      <trkpt lat="47.07547" lon="5.54171">
        <ele>234</ele>
        <time>2012-11-08T14:07:50Z</time>
      </trkpt>
      <trkpt lat="47.07529" lon="5.54176">
        <ele>234</ele>
        <time>2012-11-08T14:08:10Z</time>
      </trkpt>
      <trkpt lat="47.07511" lon="5.54174">
        <ele>235</ele>
        <time>2012-11-08T14:08:22Z</time>
      </trkpt>
      <trkpt lat="47.07487" lon="5.54187">
        <ele>236</ele>
        <time>2012-11-08T14:08:39Z</time>
      </trkpt>
      <trkpt lat="47.07468" lon="5.54201">
        <ele>238</ele>
        <time>2012-11-08T14:09:01Z</time>
      </trkpt>
      <trkpt lat="47.07465" lon="5.54205">
        <ele>238</ele>
        <time>2012-11-08T14:09:04Z</time>
      </trkpt>
      <trkpt lat="47.07454" lon="5.54212">
        <ele>240</ele>
        <time>2012-11-08T14:09:14Z</time>
      </trkpt>
      <trkpt lat="47.07441" lon="5.54222">
        <ele>240</ele>
        <time>2012-11-08T14:09:27Z</time>
      </trkpt>
      <trkpt lat="47.0742" lon="5.54228">
        <ele>240</ele>
        <time>2012-11-08T14:09:46Z</time>
      </trkpt>
      <trkpt lat="47.07411" lon="5.54246">
        <ele>241</ele>
        <time>2012-11-08T14:10:13Z</time>
      </trkpt>
      <trkpt lat="47.07391" lon="5.54257">
        <ele>244</ele>
        <time>2012-11-08T14:10:35Z</time>
      </trkpt>
      <trkpt lat="47.07367" lon="5.54267">
        <ele>245</ele>
        <time>2012-11-08T14:10:57Z</time>
      </trkpt>
      <trkpt lat="47.07348" lon="5.54276">
        <ele>246</ele>
        <time>2012-11-08T14:11:15Z</time>
      </trkpt>
      <trkpt lat="47.07347" lon="5.54277">
        <ele>246</ele>
        <time>2012-11-08T14:11:16Z</time>
      </trkpt>
      <trkpt lat="47.07334" lon="5.54286">
        <ele>247</ele>
        <time>2012-11-08T14:11:30Z</time>
      </trkpt>
      <trkpt lat="47.07316" lon="5.54294">
        <ele>247</ele>
        <time>2012-11-08T14:11:47Z</time>
      </trkpt>
      <trkpt lat="47.07305" lon="5.54305">
        <ele>248</ele>
        <time>2012-11-08T14:12:02Z</time>
      </trkpt>
      <trkpt lat="47.07292" lon="5.54318">
        <ele>248</ele>
        <time>2012-11-08T14:12:18Z</time>
      </trkpt>
      <trkpt lat="47.07275" lon="5.54323">
        <ele>249</ele>
        <time>2012-11-08T14:12:34Z</time>
      </trkpt>
      <trkpt lat="47.07255" lon="5.54336">
        <ele>250</ele>
        <time>2012-11-08T14:12:56Z</time>
      </trkpt>
      <trkpt lat="47.07243" lon="5.54349">
        <ele>250</ele>
        <time>2012-11-08T14:13:11Z</time>
      </trkpt>
      <trkpt lat="47.07231" lon="5.54356">
        <ele>250</ele>
        <time>2012-11-08T14:13:22Z</time>
      </trkpt>
      <trkpt lat="47.07221" lon="5.54361">
        <ele>250</ele>
        <time>2012-11-08T14:13:31Z</time>
      </trkpt>
      <trkpt lat="47.07208" lon="5.54367">
        <ele>250</ele>
        <time>2012-11-08T14:13:48Z</time>
      </trkpt>
      <trkpt lat="47.07187" lon="5.54382">
        <ele>250</ele>
        <time>2012-11-08T14:14:09Z</time>
      </trkpt>
      <trkpt lat="47.07175" lon="5.54387">
        <ele>250</ele>
        <time>2012-11-08T14:14:21Z</time>
      </trkpt>
      <trkpt lat="47.07172" lon="5.5439">
        <ele>250</ele>
        <time>2012-11-08T14:14:25Z</time>
      </trkpt>
      <trkpt lat="47.0716" lon="5.54393">
        <ele>250</ele>
        <time>2012-11-08T14:14:31Z</time>
      </trkpt>
      <trkpt lat="47.07156" lon="5.54397">
        <ele>250</ele>
        <time>2012-11-08T14:14:35Z</time>
      </trkpt>
      <trkpt lat="47.07144" lon="5.54412">
        <ele>250</ele>
        <time>2012-11-08T14:14:53Z</time>
      </trkpt>
      <trkpt lat="47.07135" lon="5.54417">
        <ele>250</ele>
        <time>2012-11-08T14:15:00Z</time>
      </trkpt>
      <trkpt lat="47.07114" lon="5.54426">
        <ele>250</ele>
        <time>2012-11-08T14:15:18Z</time>
      </trkpt>
      <trkpt lat="47.07114" lon="5.54427">
        <ele>250</ele>
        <time>2012-11-08T14:15:19Z</time>
      </trkpt>
      <trkpt lat="47.07112" lon="5.54428">
        <ele>250</ele>
        <time>2012-11-08T14:15:21Z</time>
      </trkpt>
      <trkpt lat="47.07095" lon="5.54439">
        <ele>250</ele>
        <time>2012-11-08T14:15:38Z</time>
      </trkpt>
      <trkpt lat="47.07088" lon="5.54441">
        <ele>250</ele>
        <time>2012-11-08T14:15:42Z</time>
      </trkpt>
      <trkpt lat="47.07086" lon="5.54443">
        <ele>250</ele>
        <time>2012-11-08T14:15:44Z</time>
      </trkpt>
      <trkpt lat="47.07072" lon="5.54448">
        <ele>250</ele>
        <time>2012-11-08T14:15:55Z</time>
      </trkpt>
      <trkpt lat="47.07062" lon="5.54455">
        <ele>250</ele>
        <time>2012-11-08T14:16:06Z</time>
      </trkpt>
      <trkpt lat="47.07057" lon="5.54462">
        <ele>250</ele>
        <time>2012-11-08T14:16:11Z</time>
      </trkpt>
      <trkpt lat="47.07041" lon="5.54473">
        <ele>249</ele>
        <time>2012-11-08T14:16:27Z</time>
      </trkpt>
      <trkpt lat="47.07032" lon="5.54479">
        <ele>249</ele>
        <time>2012-11-08T14:16:47Z</time>
      </trkpt>
      <trkpt lat="47.0703" lon="5.5448">
        <ele>249</ele>
        <time>2012-11-08T14:17:25Z</time>
      </trkpt>
      <trkpt lat="47.07031" lon="5.54481">
        <ele>249</ele>
        <time>2012-11-08T14:18:26Z</time>
      </trkpt>
      <trkpt lat="47.0703" lon="5.54476">
        <ele>250</ele>
        <time>2012-11-08T14:19:41Z</time>
      </trkpt>
      <trkpt lat="47.07029" lon="5.54487">
        <ele>250</ele>
        <time>2012-11-08T14:21:40Z</time>
      </trkpt>
      <trkpt lat="47.07029" lon="5.54528">
        <ele>249</ele>
        <time>2012-11-08T14:22:08Z</time>
      </trkpt>
      <trkpt lat="47.07032" lon="5.5457">
        <ele>248</ele>
        <time>2012-11-08T14:22:34Z</time>
      </trkpt>
      <trkpt lat="47.07035" lon="5.5461">
        <ele>248</ele>
        <time>2012-11-08T14:22:58Z</time>
      </trkpt>
      <trkpt lat="47.07036" lon="5.54642">
        <ele>247</ele>
        <time>2012-11-08T14:23:18Z</time>
      </trkpt>
      <trkpt lat="47.07036" lon="5.54655">
        <ele>247</ele>
        <time>2012-11-08T14:23:25Z</time>
      </trkpt>
      <trkpt lat="47.07035" lon="5.54658">
        <ele>247</ele>
        <time>2012-11-08T14:23:27Z</time>
      </trkpt>
      <trkpt lat="47.07036" lon="5.54692">
        <ele>247</ele>
        <time>2012-11-08T14:23:46Z</time>
      </trkpt>
      <trkpt lat="47.07037" lon="5.54712">
        <ele>247</ele>
        <time>2012-11-08T14:23:56Z</time>
      </trkpt>
      <trkpt lat="47.07037" lon="5.5474">
        <ele>247</ele>
        <time>2012-11-08T14:24:13Z</time>
      </trkpt>
      <trkpt lat="47.07041" lon="5.54766">
        <ele>247</ele>
        <time>2012-11-08T14:24:30Z</time>
      </trkpt>
      <trkpt lat="47.07042" lon="5.5477">
        <ele>247</ele>
        <time>2012-11-08T14:24:32Z</time>
      </trkpt>
      <trkpt lat="47.07051" lon="5.54808">
        <ele>247</ele>
        <time>2012-11-08T14:24:56Z</time>
      </trkpt>
      <trkpt lat="47.07057" lon="5.54843">
        <ele>248</ele>
        <time>2012-11-08T14:25:17Z</time>
      </trkpt>
      <trkpt lat="47.07061" lon="5.54871">
        <ele>248</ele>
        <time>2012-11-08T14:25:35Z</time>
      </trkpt>
      <trkpt lat="47.07066" lon="5.54898">
        <ele>249</ele>
        <time>2012-11-08T14:25:52Z</time>
      </trkpt>
      <trkpt lat="47.07073" lon="5.54928">
        <ele>249</ele>
        <time>2012-11-08T14:26:11Z</time>
      </trkpt>
      <trkpt lat="47.07077" lon="5.54962">
        <ele>250</ele>
        <time>2012-11-08T14:26:32Z</time>
      </trkpt>
      <trkpt lat="47.07081" lon="5.54987">
        <ele>250</ele>
        <time>2012-11-08T14:26:48Z</time>
      </trkpt>
      <trkpt lat="47.0708" lon="5.55025">
        <ele>250</ele>
        <time>2012-11-08T14:27:09Z</time>
      </trkpt>
      <trkpt lat="47.07079" lon="5.55066">
        <ele>250</ele>
        <time>2012-11-08T14:27:33Z</time>
      </trkpt>
      <trkpt lat="47.07081" lon="5.551">
        <ele>250</ele>
        <time>2012-11-08T14:27:52Z</time>
      </trkpt>
      <trkpt lat="47.07083" lon="5.55118">
        <ele>249</ele>
        <time>2012-11-08T14:28:10Z</time>
      </trkpt>
      <trkpt lat="47.07086" lon="5.55122">
        <ele>249</ele>
        <time>2012-11-08T14:28:27Z</time>
      </trkpt>
      <trkpt lat="47.07083" lon="5.55142">
        <ele>249</ele>
        <time>2012-11-08T14:28:57Z</time>
      </trkpt>
      <trkpt lat="47.07085" lon="5.55166">
        <ele>249</ele>
        <time>2012-11-08T14:29:14Z</time>
      </trkpt>
      <trkpt lat="47.07083" lon="5.55209">
        <ele>249</ele>
        <time>2012-11-08T14:29:40Z</time>
      </trkpt>
      <trkpt lat="47.07084" lon="5.55238">
        <ele>249</ele>
        <time>2012-11-08T14:29:58Z</time>
      </trkpt>
      <trkpt lat="47.07087" lon="5.55263">
        <ele>249</ele>
        <time>2012-11-08T14:30:15Z</time>
      </trkpt>
      <trkpt lat="47.0709" lon="5.55293">
        <ele>249</ele>
        <time>2012-11-08T14:30:35Z</time>
      </trkpt>
      <trkpt lat="47.07091" lon="5.55298">
        <ele>249</ele>
        <time>2012-11-08T14:30:38Z</time>
      </trkpt>
      <trkpt lat="47.07091" lon="5.55326">
        <ele>249</ele>
        <time>2012-11-08T14:30:53Z</time>
      </trkpt>
      <trkpt lat="47.07089" lon="5.55334">
        <ele>249</ele>
        <time>2012-11-08T14:30:58Z</time>
      </trkpt>
      <trkpt lat="47.0709" lon="5.55339">
        <ele>249</ele>
        <time>2012-11-08T14:31:00Z</time>
      </trkpt>
      <trkpt lat="47.0709" lon="5.55354">
        <ele>249</ele>
        <time>2012-11-08T14:31:12Z</time>
      </trkpt>
      <trkpt lat="47.07092" lon="5.55357">
        <ele>249</ele>
        <time>2012-11-08T14:31:14Z</time>
      </trkpt>
      <trkpt lat="47.0709" lon="5.55362">
        <ele>249</ele>
        <time>2012-11-08T14:31:17Z</time>
      </trkpt>
      <trkpt lat="47.07089" lon="5.55389">
        <ele>249</ele>
        <time>2012-11-08T14:31:34Z</time>
      </trkpt>
      <trkpt lat="47.07086" lon="5.55411">
        <ele>250</ele>
        <time>2012-11-08T14:31:50Z</time>
      </trkpt>
      <trkpt lat="47.07084" lon="5.55434">
        <ele>249</ele>
        <time>2012-11-08T14:32:07Z</time>
      </trkpt>
      <trkpt lat="47.07078" lon="5.5546">
        <ele>250</ele>
        <time>2012-11-08T14:32:24Z</time>
      </trkpt>
      <trkpt lat="47.07075" lon="5.55484">
        <ele>250</ele>
        <time>2012-11-08T14:32:37Z</time>
      </trkpt>
      <trkpt lat="47.0707" lon="5.55499">
        <ele>250</ele>
        <time>2012-11-08T14:32:45Z</time>
      </trkpt>
      <trkpt lat="47.07062" lon="5.55525">
        <ele>250</ele>
        <time>2012-11-08T14:33:01Z</time>
      </trkpt>
      <trkpt lat="47.07053" lon="5.55544">
        <ele>250</ele>
        <time>2012-11-08T14:33:14Z</time>
      </trkpt>
      <trkpt lat="47.07047" lon="5.55566">
        <ele>251</ele>
        <time>2012-11-08T14:33:32Z</time>
      </trkpt>
      <trkpt lat="47.07043" lon="5.55594">
        <ele>251</ele>
        <time>2012-11-08T14:33:50Z</time>
      </trkpt>
      <trkpt lat="47.07039" lon="5.55621">
        <ele>251</ele>
        <time>2012-11-08T14:34:06Z</time>
      </trkpt>
      <trkpt lat="47.07037" lon="5.55648">
        <ele>252</ele>
        <time>2012-11-08T14:34:24Z</time>
      </trkpt>
      <trkpt lat="47.0703" lon="5.5566">
        <ele>252</ele>
        <time>2012-11-08T14:34:42Z</time>
      </trkpt>
      <trkpt lat="47.07026" lon="5.55647">
        <ele>252</ele>
        <time>2012-11-08T14:34:54Z</time>
      </trkpt>
      <trkpt lat="47.07021" lon="5.55615">
        <ele>252</ele>
        <time>2012-11-08T14:35:10Z</time>
      </trkpt>
      <trkpt lat="47.07016" lon="5.55583">
        <ele>252</ele>
        <time>2012-11-08T14:35:25Z</time>
      </trkpt>
      <trkpt lat="47.07012" lon="5.55568">
        <ele>252</ele>
        <time>2012-11-08T14:35:33Z</time>
      </trkpt>
      <trkpt lat="47.07008" lon="5.55543">
        <ele>251</ele>
        <time>2012-11-08T14:35:46Z</time>
      </trkpt>
      <trkpt lat="47.07008" lon="5.55541">
        <ele>251</ele>
        <time>2012-11-08T14:35:47Z</time>
      </trkpt>
      <trkpt lat="47.07003" lon="5.5552">
        <ele>251</ele>
        <time>2012-11-08T14:35:59Z</time>
      </trkpt>
      <trkpt lat="47.07002" lon="5.55519">
        <ele>251</ele>
        <time>2012-11-08T14:36:01Z</time>
      </trkpt>
      <trkpt lat="47.07002" lon="5.55516">
        <ele>251</ele>
        <time>2012-11-08T14:36:03Z</time>
      </trkpt>
      <trkpt lat="47.06996" lon="5.55492">
        <ele>250</ele>
        <time>2012-11-08T14:36:14Z</time>
      </trkpt>
      <trkpt lat="47.06994" lon="5.55484">
        <ele>250</ele>
        <time>2012-11-08T14:36:19Z</time>
      </trkpt>
      <trkpt lat="47.06993" lon="5.5548">
        <ele>250</ele>
        <time>2012-11-08T14:36:21Z</time>
      </trkpt>
      <trkpt lat="47.06988" lon="5.55466">
        <ele>250</ele>
        <time>2012-11-08T14:36:28Z</time>
      </trkpt>
      <trkpt lat="47.06987" lon="5.55463">
        <ele>250</ele>
        <time>2012-11-08T14:36:30Z</time>
      </trkpt>
      <trkpt lat="47.06984" lon="5.55446">
        <ele>250</ele>
        <time>2012-11-08T14:36:40Z</time>
      </trkpt>
      <trkpt lat="47.0698" lon="5.55419">
        <ele>249</ele>
        <time>2012-11-08T14:36:55Z</time>
      </trkpt>
      <trkpt lat="47.06978" lon="5.5541">
        <ele>249</ele>
        <time>2012-11-08T14:37:00Z</time>
      </trkpt>
      <trkpt lat="47.06976" lon="5.55398">
        <ele>249</ele>
        <time>2012-11-08T14:37:06Z</time>
      </trkpt>
      <trkpt lat="47.06974" lon="5.5539">
        <ele>249</ele>
        <time>2012-11-08T14:37:10Z</time>
      </trkpt>
      <trkpt lat="47.06968" lon="5.55379">
        <ele>249</ele>
        <time>2012-11-08T14:37:16Z</time>
      </trkpt>
      <trkpt lat="47.06963" lon="5.55347">
        <ele>249</ele>
        <time>2012-11-08T14:37:33Z</time>
      </trkpt>
      <trkpt lat="47.06962" lon="5.55332">
        <ele>249</ele>
        <time>2012-11-08T14:37:43Z</time>
      </trkpt>
      <trkpt lat="47.06959" lon="5.5532">
        <ele>248</ele>
        <time>2012-11-08T14:37:49Z</time>
      </trkpt>
      <trkpt lat="47.06958" lon="5.55312">
        <ele>248</ele>
        <time>2012-11-08T14:37:53Z</time>
      </trkpt>
      <trkpt lat="47.06955" lon="5.55298">
        <ele>248</ele>
        <time>2012-11-08T14:38:02Z</time>
      </trkpt>
      <trkpt lat="47.06949" lon="5.55273">
        <ele>248</ele>
        <time>2012-11-08T14:38:16Z</time>
      </trkpt>
      <trkpt lat="47.06948" lon="5.55268">
        <ele>247</ele>
        <time>2012-11-08T14:38:19Z</time>
      </trkpt>
      <trkpt lat="47.06943" lon="5.55245">
        <ele>247</ele>
        <time>2012-11-08T14:38:31Z</time>
      </trkpt>
      <trkpt lat="47.0694" lon="5.55238">
        <ele>247</ele>
        <time>2012-11-08T14:38:35Z</time>
      </trkpt>
      <trkpt lat="47.06938" lon="5.55233">
        <ele>247</ele>
        <time>2012-11-08T14:38:39Z</time>
      </trkpt>
      <trkpt lat="47.06938" lon="5.55228">
        <ele>247</ele>
        <time>2012-11-08T14:38:42Z</time>
      </trkpt>
      <trkpt lat="47.06919" lon="5.55223">
        <ele>246</ele>
        <time>2012-11-08T14:38:57Z</time>
      </trkpt>
      <trkpt lat="47.06906" lon="5.55227">
        <ele>246</ele>
        <time>2012-11-08T14:39:07Z</time>
      </trkpt>
      <trkpt lat="47.069" lon="5.55231">
        <ele>246</ele>
        <time>2012-11-08T14:39:11Z</time>
      </trkpt>
      <trkpt lat="47.06884" lon="5.55241">
        <ele>246</ele>
        <time>2012-11-08T14:39:25Z</time>
      </trkpt>
      <trkpt lat="47.06876" lon="5.55247">
        <ele>245</ele>
        <time>2012-11-08T14:39:31Z</time>
      </trkpt>
      <trkpt lat="47.06865" lon="5.55256">
        <ele>245</ele>
        <time>2012-11-08T14:39:41Z</time>
      </trkpt>
      <trkpt lat="47.06862" lon="5.55258">
        <ele>245</ele>
        <time>2012-11-08T14:39:44Z</time>
      </trkpt>
      <trkpt lat="47.06834" lon="5.55274">
        <ele>245</ele>
        <time>2012-11-08T14:40:08Z</time>
      </trkpt>
      <trkpt lat="47.06832" lon="5.55276">
        <ele>246</ele>
        <time>2012-11-08T14:40:10Z</time>
      </trkpt>
      <trkpt lat="47.06824" lon="5.55279">
        <ele>246</ele>
        <time>2012-11-08T14:40:17Z</time>
      </trkpt>
      <trkpt lat="47.06817" lon="5.55285">
        <ele>246</ele>
        <time>2012-11-08T14:40:23Z</time>
      </trkpt>
      <trkpt lat="47.06792" lon="5.55303">
        <ele>246</ele>
        <time>2012-11-08T14:40:45Z</time>
      </trkpt>
      <trkpt lat="47.06786" lon="5.55306">
        <ele>247</ele>
        <time>2012-11-08T14:40:50Z</time>
      </trkpt>
      <trkpt lat="47.06758" lon="5.55326">
        <ele>248</ele>
        <time>2012-11-08T14:41:12Z</time>
      </trkpt>
      <trkpt lat="47.06738" lon="5.55338">
        <ele>248</ele>
        <time>2012-11-08T14:41:29Z</time>
      </trkpt>
      <trkpt lat="47.06721" lon="5.55352">
        <ele>248</ele>
        <time>2012-11-08T14:41:46Z</time>
      </trkpt>
      <trkpt lat="47.06717" lon="5.55355">
        <ele>248</ele>
        <time>2012-11-08T14:41:50Z</time>
      </trkpt>
      <trkpt lat="47.06698" lon="5.55365">
        <ele>249</ele>
        <time>2012-11-08T14:42:07Z</time>
      </trkpt>
      <trkpt lat="47.06679" lon="5.55377">
        <ele>249</ele>
        <time>2012-11-08T14:42:23Z</time>
      </trkpt>
      <trkpt lat="47.06649" lon="5.55394">
        <ele>250</ele>
        <time>2012-11-08T14:42:46Z</time>
      </trkpt>
      <trkpt lat="47.06625" lon="5.55408">
        <ele>251</ele>
        <time>2012-11-08T14:43:07Z</time>
      </trkpt>
      <trkpt lat="47.06619" lon="5.55412">
        <ele>251</ele>
        <time>2012-11-08T14:43:12Z</time>
      </trkpt>
      <trkpt lat="47.06601" lon="5.55421">
        <ele>252</ele>
        <time>2012-11-08T14:43:28Z</time>
      </trkpt>
      <trkpt lat="47.06574" lon="5.55432">
        <ele>253</ele>
        <time>2012-11-08T14:43:52Z</time>
      </trkpt>
      <trkpt lat="47.06555" lon="5.55445">
        <ele>254</ele>
        <time>2012-11-08T14:44:10Z</time>
      </trkpt>
      <trkpt lat="47.06542" lon="5.55454">
        <ele>254</ele>
        <time>2012-11-08T14:44:20Z</time>
      </trkpt>
      <trkpt lat="47.06535" lon="5.55459">
        <ele>255</ele>
        <time>2012-11-08T14:44:26Z</time>
      </trkpt>
      <trkpt lat="47.06513" lon="5.55476">
        <ele>256</ele>
        <time>2012-11-08T14:44:43Z</time>
      </trkpt>
      <trkpt lat="47.06505" lon="5.55479">
        <ele>256</ele>
        <time>2012-11-08T14:44:49Z</time>
      </trkpt>
      <trkpt lat="47.06489" lon="5.55489">
        <ele>257</ele>
        <time>2012-11-08T14:45:04Z</time>
      </trkpt>
      <trkpt lat="47.06481" lon="5.55493">
        <ele>258</ele>
        <time>2012-11-08T14:45:12Z</time>
      </trkpt>
      <trkpt lat="47.06476" lon="5.55497">
        <ele>258</ele>
        <time>2012-11-08T14:45:16Z</time>
      </trkpt>
      <trkpt lat="47.06454" lon="5.55514">
        <ele>259</ele>
        <time>2012-11-08T14:45:34Z</time>
      </trkpt>
      <trkpt lat="47.06441" lon="5.55523">
        <ele>260</ele>
        <time>2012-11-08T14:45:46Z</time>
      </trkpt>
      <trkpt lat="47.06421" lon="5.55533">
        <ele>262</ele>
        <time>2012-11-08T14:46:04Z</time>
      </trkpt>
      <trkpt lat="47.06405" lon="5.55542">
        <ele>264</ele>
        <time>2012-11-08T14:46:19Z</time>
      </trkpt>
      <trkpt lat="47.06399" lon="5.55546">
        <ele>264</ele>
        <time>2012-11-08T14:46:25Z</time>
      </trkpt>
      <trkpt lat="47.06393" lon="5.55548">
        <ele>264</ele>
        <time>2012-11-08T14:46:30Z</time>
      </trkpt>
      <trkpt lat="47.06376" lon="5.55557">
        <ele>265</ele>
        <time>2012-11-08T14:46:46Z</time>
      </trkpt>
      <trkpt lat="47.06352" lon="5.5557">
        <ele>266</ele>
        <time>2012-11-08T14:47:06Z</time>
      </trkpt>
      <trkpt lat="47.06327" lon="5.55588">
        <ele>266</ele>
        <time>2012-11-08T14:47:28Z</time>
      </trkpt>
      <trkpt lat="47.06305" lon="5.55602">
        <ele>267</ele>
        <time>2012-11-08T14:47:46Z</time>
      </trkpt>
      <trkpt lat="47.06277" lon="5.5562">
        <ele>266</ele>
        <time>2012-11-08T14:48:07Z</time>
      </trkpt>
      <trkpt lat="47.06264" lon="5.55626">
        <ele>266</ele>
        <time>2012-11-08T14:48:17Z</time>
      </trkpt>
      <trkpt lat="47.06239" lon="5.55642">
        <ele>266</ele>
        <time>2012-11-08T14:48:37Z</time>
      </trkpt>
      <trkpt lat="47.0622" lon="5.55655">
        <ele>265</ele>
        <time>2012-11-08T14:48:53Z</time>
      </trkpt>
      <trkpt lat="47.06195" lon="5.55667">
        <ele>264</ele>
        <time>2012-11-08T14:49:13Z</time>
      </trkpt>
      <trkpt lat="47.06184" lon="5.55677">
        <ele>264</ele>
        <time>2012-11-08T14:49:22Z</time>
      </trkpt>
      <trkpt lat="47.06178" lon="5.5568">
        <ele>264</ele>
        <time>2012-11-08T14:49:27Z</time>
      </trkpt>
      <trkpt lat="47.06171" lon="5.55683">
        <ele>264</ele>
        <time>2012-11-08T14:49:32Z</time>
      </trkpt>
      <trkpt lat="47.06164" lon="5.55688">
        <ele>264</ele>
        <time>2012-11-08T14:49:38Z</time>
      </trkpt>
      <trkpt lat="47.06136" lon="5.55702">
        <ele>263</ele>
        <time>2012-11-08T14:49:59Z</time>
      </trkpt>
      <trkpt lat="47.06126" lon="5.55705">
        <ele>262</ele>
        <time>2012-11-08T14:50:07Z</time>
      </trkpt>
      <trkpt lat="47.06105" lon="5.55717">
        <ele>260</ele>
        <time>2012-11-08T14:50:26Z</time>
      </trkpt>
      <trkpt lat="47.06089" lon="5.55725">
        <ele>259</ele>
        <time>2012-11-08T14:50:39Z</time>
      </trkpt>
      <trkpt lat="47.06083" lon="5.55728">
        <ele>259</ele>
        <time>2012-11-08T14:50:44Z</time>
      </trkpt>
      <trkpt lat="47.06066" lon="5.55738">
        <ele>257</ele>
        <time>2012-11-08T14:50:59Z</time>
      </trkpt>
      <trkpt lat="47.06062" lon="5.55753">
        <ele>256</ele>
        <time>2012-11-08T14:51:09Z</time>
      </trkpt>
      <trkpt lat="47.06063" lon="5.55759">
        <ele>256</ele>
        <time>2012-11-08T14:51:13Z</time>
      </trkpt>
      <trkpt lat="47.06069" lon="5.55784">
        <ele>256</ele>
        <time>2012-11-08T14:51:27Z</time>
      </trkpt>
      <trkpt lat="47.0607" lon="5.55812">
        <ele>255</ele>
        <time>2012-11-08T14:51:44Z</time>
      </trkpt>
      <trkpt lat="47.06068" lon="5.55847">
        <ele>254</ele>
        <time>2012-11-08T14:52:04Z</time>
      </trkpt>
      <trkpt lat="47.06069" lon="5.55854">
        <ele>253</ele>
        <time>2012-11-08T14:52:08Z</time>
      </trkpt>
      <trkpt lat="47.06069" lon="5.55883">
        <ele>252</ele>
        <time>2012-11-08T14:52:24Z</time>
      </trkpt>
      <trkpt lat="47.06063" lon="5.55917">
        <ele>251</ele>
        <time>2012-11-08T14:52:42Z</time>
      </trkpt>
      <trkpt lat="47.06055" lon="5.55944">
        <ele>251</ele>
        <time>2012-11-08T14:52:57Z</time>
      </trkpt>
      <trkpt lat="47.0605" lon="5.55962">
        <ele>250</ele>
        <time>2012-11-08T14:53:11Z</time>
      </trkpt>
      <trkpt lat="47.06048" lon="5.55985">
        <ele>250</ele>
        <time>2012-11-08T14:53:29Z</time>
      </trkpt>
      <trkpt lat="47.06039" lon="5.56015">
        <ele>250</ele>
        <time>2012-11-08T14:53:46Z</time>
      </trkpt>
      <trkpt lat="47.06029" lon="5.56041">
        <ele>250</ele>
        <time>2012-11-08T14:54:07Z</time>
      </trkpt>
      <trkpt lat="47.06023" lon="5.56064">
        <ele>250</ele>
        <time>2012-11-08T14:54:23Z</time>
      </trkpt>
      <trkpt lat="47.06007" lon="5.56091">
        <ele>250</ele>
        <time>2012-11-08T14:54:42Z</time>
      </trkpt>
      <trkpt lat="47.05996" lon="5.56109">
        <ele>250</ele>
        <time>2012-11-08T14:54:55Z</time>
      </trkpt>
      <trkpt lat="47.05979" lon="5.56126">
        <ele>250</ele>
        <time>2012-11-08T14:55:15Z</time>
      </trkpt>
      <trkpt lat="47.05971" lon="5.56136">
        <ele>250</ele>
        <time>2012-11-08T14:55:23Z</time>
      </trkpt>
      <trkpt lat="47.05969" lon="5.5614">
        <ele>250</ele>
        <time>2012-11-08T14:55:26Z</time>
      </trkpt>
      <trkpt lat="47.05956" lon="5.56173">
        <ele>249</ele>
        <time>2012-11-08T14:55:46Z</time>
      </trkpt>
      <trkpt lat="47.05951" lon="5.56195">
        <ele>248</ele>
        <time>2012-11-08T14:56:01Z</time>
      </trkpt>
      <trkpt lat="47.05943" lon="5.5622">
        <ele>247</ele>
        <time>2012-11-08T14:56:18Z</time>
      </trkpt>
      <trkpt lat="47.05937" lon="5.56248">
        <ele>246</ele>
        <time>2012-11-08T14:56:36Z</time>
      </trkpt>
      <trkpt lat="47.05937" lon="5.56256">
        <ele>245</ele>
        <time>2012-11-08T14:56:41Z</time>
      </trkpt>
      <trkpt lat="47.05925" lon="5.56302">
        <ele>244</ele>
        <time>2012-11-08T14:57:01Z</time>
      </trkpt>
      <trkpt lat="47.0592" lon="5.56313">
        <ele>243</ele>
        <time>2012-11-08T14:57:09Z</time>
      </trkpt>
      <trkpt lat="47.05915" lon="5.56331">
        <ele>243</ele>
        <time>2012-11-08T14:57:19Z</time>
      </trkpt>
      <trkpt lat="47.05909" lon="5.56348">
        <ele>242</ele>
        <time>2012-11-08T14:57:30Z</time>
      </trkpt>
      <trkpt lat="47.059" lon="5.56367">
        <ele>242</ele>
        <time>2012-11-08T14:57:46Z</time>
      </trkpt>
      <trkpt lat="47.05894" lon="5.56379">
        <ele>241</ele>
        <time>2012-11-08T14:57:57Z</time>
      </trkpt>
      <trkpt lat="47.05883" lon="5.56397">
        <ele>241</ele>
        <time>2012-11-08T14:58:11Z</time>
      </trkpt>
      <trkpt lat="47.05882" lon="5.564">
        <ele>240</ele>
        <time>2012-11-08T14:58:13Z</time>
      </trkpt>
      <trkpt lat="47.05874" lon="5.5642">
        <ele>240</ele>
        <time>2012-11-08T14:58:27Z</time>
      </trkpt>
      <trkpt lat="47.05866" lon="5.56441">
        <ele>240</ele>
        <time>2012-11-08T14:58:43Z</time>
      </trkpt>
      <trkpt lat="47.05863" lon="5.56459">
        <ele>239</ele>
        <time>2012-11-08T14:58:54Z</time>
      </trkpt>
      <trkpt lat="47.05858" lon="5.56488">
        <ele>238</ele>
        <time>2012-11-08T14:59:12Z</time>
      </trkpt>
      <trkpt lat="47.05851" lon="5.56524">
        <ele>237</ele>
        <time>2012-11-08T14:59:33Z</time>
      </trkpt>
      <trkpt lat="47.05846" lon="5.56559">
        <ele>236</ele>
        <time>2012-11-08T14:59:52Z</time>
      </trkpt>
      <trkpt lat="47.05841" lon="5.56592">
        <ele>235</ele>
        <time>2012-11-08T15:00:12Z</time>
      </trkpt>
      <trkpt lat="47.05843" lon="5.56617">
        <ele>234</ele>
        <time>2012-11-08T15:00:31Z</time>
      </trkpt>
      <trkpt lat="47.0584" lon="5.56655">
        <ele>234</ele>
        <time>2012-11-08T15:00:52Z</time>
      </trkpt>
      <trkpt lat="47.0584" lon="5.5666">
        <ele>234</ele>
        <time>2012-11-08T15:00:55Z</time>
      </trkpt>
      <trkpt lat="47.0585" lon="5.56705">
        <ele>237</ele>
        <time>2012-11-08T15:01:21Z</time>
      </trkpt>
      <trkpt lat="47.05858" lon="5.56731">
        <ele>238</ele>
        <time>2012-11-08T15:01:37Z</time>
      </trkpt>
      <trkpt lat="47.05864" lon="5.56761">
        <ele>239</ele>
        <time>2012-11-08T15:01:51Z</time>
      </trkpt>
      <trkpt lat="47.05864" lon="5.56794">
        <ele>240</ele>
        <time>2012-11-08T15:02:10Z</time>
      </trkpt>
      <trkpt lat="47.05861" lon="5.56819">
        <ele>240</ele>
        <time>2012-11-08T15:02:27Z</time>
      </trkpt>
      <trkpt lat="47.05848" lon="5.56862">
        <ele>241</ele>
        <time>2012-11-08T15:02:51Z</time>
      </trkpt>
      <trkpt lat="47.05839" lon="5.56888">
        <ele>243</ele>
        <time>2012-11-08T15:03:05Z</time>
      </trkpt>
      <trkpt lat="47.05828" lon="5.56904">
        <ele>244</ele>
        <time>2012-11-08T15:03:16Z</time>
      </trkpt>
      <trkpt lat="47.0582" lon="5.56926">
        <ele>244</ele>
        <time>2012-11-08T15:03:31Z</time>
      </trkpt>
      <trkpt lat="47.05808" lon="5.56951">
        <ele>246</ele>
        <time>2012-11-08T15:03:50Z</time>
      </trkpt>
      <trkpt lat="47.05798" lon="5.5697">
        <ele>247</ele>
        <time>2012-11-08T15:04:05Z</time>
      </trkpt>
      <trkpt lat="47.05791" lon="5.56988">
        <ele>249</ele>
        <time>2012-11-08T15:04:20Z</time>
      </trkpt>
      <trkpt lat="47.05784" lon="5.57002">
        <ele>250</ele>
        <time>2012-11-08T15:04:35Z</time>
      </trkpt>
      <trkpt lat="47.05775" lon="5.57019">
        <ele>251</ele>
        <time>2012-11-08T15:04:50Z</time>
      </trkpt>
      <trkpt lat="47.05775" lon="5.57026">
        <ele>252</ele>
        <time>2012-11-08T15:05:07Z</time>
      </trkpt>
      <trkpt lat="47.05776" lon="5.57026">
        <ele>252</ele>
        <time>2012-11-08T15:06:03Z</time>
      </trkpt>
      <trkpt lat="47.05781" lon="5.57023">
        <ele>252</ele>
        <time>2012-11-08T15:06:27Z</time>
      </trkpt>
      <trkpt lat="47.05782" lon="5.57015">
        <ele>251</ele>
        <time>2012-11-08T15:06:32Z</time>
      </trkpt>
      <trkpt lat="47.05783" lon="5.57008">
        <ele>251</ele>
        <time>2012-11-08T15:06:53Z</time>
      </trkpt>
      <trkpt lat="47.05776" lon="5.5701">
        <ele>251</ele>
        <time>2012-11-08T15:07:30Z</time>
      </trkpt>
      <trkpt lat="47.05772" lon="5.57025">
        <ele>252</ele>
        <time>2012-11-08T15:07:48Z</time>
      </trkpt>
      <trkpt lat="47.05769" lon="5.57034">
        <ele>252</ele>
        <time>2012-11-08T15:08:02Z</time>
      </trkpt>
      <trkpt lat="47.05768" lon="5.57033">
        <ele>252</ele>
        <time>2012-11-08T15:08:29Z</time>
      </trkpt>
      <trkpt lat="47.0577" lon="5.5703">
        <ele>252</ele>
        <time>2012-11-08T15:09:00Z</time>
      </trkpt>
      <trkpt lat="47.05772" lon="5.5703">
        <ele>251</ele>
        <time>2012-11-08T15:09:57Z</time>
      </trkpt>
      <trkpt lat="47.05773" lon="5.57028">
        <ele>251</ele>
        <time>2012-11-08T15:10:26Z</time>
      </trkpt>
      <trkpt lat="47.05766" lon="5.5703">
        <ele>249</ele>
        <time>2012-11-08T15:13:38Z</time>
      </trkpt>
      <trkpt lat="47.05758" lon="5.57038">
        <ele>250</ele>
        <time>2012-11-08T15:13:52Z</time>
      </trkpt>
      <trkpt lat="47.05748" lon="5.57054">
        <ele>250</ele>
        <time>2012-11-08T15:14:09Z</time>
      </trkpt>
      <trkpt lat="47.05738" lon="5.57077">
        <ele>251</ele>
        <time>2012-11-08T15:14:26Z</time>
      </trkpt>
      <trkpt lat="47.0573" lon="5.57093">
        <ele>251</ele>
        <time>2012-11-08T15:14:40Z</time>
      </trkpt>
      <trkpt lat="47.0572" lon="5.57114">
        <ele>251</ele>
        <time>2012-11-08T15:14:55Z</time>
      </trkpt>
      <trkpt lat="47.05706" lon="5.57139">
        <ele>251</ele>
        <time>2012-11-08T15:15:14Z</time>
      </trkpt>
      <trkpt lat="47.05705" lon="5.57139">
        <ele>251</ele>
        <time>2012-11-08T15:15:15Z</time>
      </trkpt>
      <trkpt lat="47.05702" lon="5.57148">
        <ele>251</ele>
        <time>2012-11-08T15:15:23Z</time>
      </trkpt>
      <trkpt lat="47.05693" lon="5.57174">
        <ele>251</ele>
        <time>2012-11-08T15:15:39Z</time>
      </trkpt>
      <trkpt lat="47.05685" lon="5.572">
        <ele>251</ele>
        <time>2012-11-08T15:15:56Z</time>
      </trkpt>
      <trkpt lat="47.05679" lon="5.57222">
        <ele>251</ele>
        <time>2012-11-08T15:16:09Z</time>
      </trkpt>
      <trkpt lat="47.05677" lon="5.57255">
        <ele>252</ele>
        <time>2012-11-08T15:16:27Z</time>
      </trkpt>
      <trkpt lat="47.05675" lon="5.57277">
        <ele>251</ele>
        <time>2012-11-08T15:16:39Z</time>
      </trkpt>
      <trkpt lat="47.05674" lon="5.57292">
        <ele>252</ele>
        <time>2012-11-08T15:16:57Z</time>
      </trkpt>
      <trkpt lat="47.0567" lon="5.5731">
        <ele>252</ele>
        <time>2012-11-08T15:17:21Z</time>
      </trkpt>
      <trkpt lat="47.05681" lon="5.57312">
        <ele>252</ele>
        <time>2012-11-08T15:18:11Z</time>
      </trkpt>
      <trkpt lat="47.05679" lon="5.57315">
        <ele>252</ele>
        <time>2012-11-08T15:18:41Z</time>
      </trkpt>
      <trkpt lat="47.05679" lon="5.57306">
        <ele>252</ele>
        <time>2012-11-08T15:19:10Z</time>
      </trkpt>
      <trkpt lat="47.05693" lon="5.57289">
        <ele>251</ele>
        <time>2012-11-08T15:19:24Z</time>
      </trkpt>
      <trkpt lat="47.05702" lon="5.57284">
        <ele>251</ele>
        <time>2012-11-08T15:19:33Z</time>
      </trkpt>
      <trkpt lat="47.05714" lon="5.57279">
        <ele>251</ele>
        <time>2012-11-08T15:19:43Z</time>
      </trkpt>
      <trkpt lat="47.0573" lon="5.57269">
        <ele>249</ele>
        <time>2012-11-08T15:19:57Z</time>
      </trkpt>
      <trkpt lat="47.05749" lon="5.57259">
        <ele>248</ele>
        <time>2012-11-08T15:20:12Z</time>
      </trkpt>
      <trkpt lat="47.05765" lon="5.57248">
        <ele>247</ele>
        <time>2012-11-08T15:20:26Z</time>
      </trkpt>
      <trkpt lat="47.05766" lon="5.57247">
        <ele>247</ele>
        <time>2012-11-08T15:20:27Z</time>
      </trkpt>
      <trkpt lat="47.05775" lon="5.57244">
        <ele>246</ele>
        <time>2012-11-08T15:20:35Z</time>
      </trkpt>
      <trkpt lat="47.05783" lon="5.57239">
        <ele>245</ele>
        <time>2012-11-08T15:20:42Z</time>
      </trkpt>
      <trkpt lat="47.05802" lon="5.57226">
        <ele>244</ele>
        <time>2012-11-08T15:20:58Z</time>
      </trkpt>
      <trkpt lat="47.05826" lon="5.57221">
        <ele>244</ele>
        <time>2012-11-08T15:21:14Z</time>
      </trkpt>
      <trkpt lat="47.05829" lon="5.57221">
        <ele>244</ele>
        <time>2012-11-08T15:21:16Z</time>
      </trkpt>
      <trkpt lat="47.05833" lon="5.57217">
        <ele>244</ele>
        <time>2012-11-08T15:21:19Z</time>
      </trkpt>
      <trkpt lat="47.05843" lon="5.5721">
        <ele>244</ele>
        <time>2012-11-08T15:21:27Z</time>
      </trkpt>
      <trkpt lat="47.05846" lon="5.57208">
        <ele>244</ele>
        <time>2012-11-08T15:21:29Z</time>
      </trkpt>
      <trkpt lat="47.0585" lon="5.57203">
        <ele>244</ele>
        <time>2012-11-08T15:21:33Z</time>
      </trkpt>
      <trkpt lat="47.0586" lon="5.57194">
        <ele>244</ele>
        <time>2012-11-08T15:21:41Z</time>
      </trkpt>
      <trkpt lat="47.05874" lon="5.57179">
        <ele>245</ele>
        <time>2012-11-08T15:21:55Z</time>
      </trkpt>
      <trkpt lat="47.05893" lon="5.5717">
        <ele>244</ele>
        <time>2012-11-08T15:22:11Z</time>
      </trkpt>
      <trkpt lat="47.05913" lon="5.57154">
        <ele>244</ele>
        <time>2012-11-08T15:22:28Z</time>
      </trkpt>
      <trkpt lat="47.05929" lon="5.57146">
        <ele>244</ele>
        <time>2012-11-08T15:22:40Z</time>
      </trkpt>
      <trkpt lat="47.05949" lon="5.57137">
        <ele>243</ele>
        <time>2012-11-08T15:22:55Z</time>
      </trkpt>
      <trkpt lat="47.05951" lon="5.57136">
        <ele>243</ele>
        <time>2012-11-08T15:22:57Z</time>
      </trkpt>
      <trkpt lat="47.05954" lon="5.57133">
        <ele>243</ele>
        <time>2012-11-08T15:22:59Z</time>
      </trkpt>
      <trkpt lat="47.05972" lon="5.57129">
        <ele>242</ele>
        <time>2012-11-08T15:23:12Z</time>
      </trkpt>
      <trkpt lat="47.05974" lon="5.57126">
        <ele>242</ele>
        <time>2012-11-08T15:23:14Z</time>
      </trkpt>
      <trkpt lat="47.05988" lon="5.57118">
        <ele>241</ele>
        <time>2012-11-08T15:23:26Z</time>
      </trkpt>
      <trkpt lat="47.0599" lon="5.57117">
        <ele>241</ele>
        <time>2012-11-08T15:23:28Z</time>
      </trkpt>
      <trkpt lat="47.05993" lon="5.57115">
        <ele>241</ele>
        <time>2012-11-08T15:23:30Z</time>
      </trkpt>
      <trkpt lat="47.05997" lon="5.57111">
        <ele>240</ele>
        <time>2012-11-08T15:23:35Z</time>
      </trkpt>
      <trkpt lat="47.06025" lon="5.571">
        <ele>240</ele>
        <time>2012-11-08T15:23:54Z</time>
      </trkpt>
      <trkpt lat="47.06035" lon="5.57093">
        <ele>239</ele>
        <time>2012-11-08T15:24:03Z</time>
      </trkpt>
      <trkpt lat="47.06039" lon="5.57087">
        <ele>238</ele>
        <time>2012-11-08T15:24:09Z</time>
      </trkpt>
      <trkpt lat="47.06054" lon="5.57079">
        <ele>237</ele>
        <time>2012-11-08T15:24:21Z</time>
      </trkpt>
      <trkpt lat="47.06057" lon="5.57074">
        <ele>237</ele>
        <time>2012-11-08T15:24:24Z</time>
      </trkpt>
      <trkpt lat="47.06074" lon="5.57065">
        <ele>235</ele>
        <time>2012-11-08T15:24:38Z</time>
      </trkpt>
      <trkpt lat="47.06083" lon="5.57064">
        <ele>235</ele>
        <time>2012-11-08T15:24:44Z</time>
      </trkpt>
      <trkpt lat="47.06099" lon="5.57052">
        <ele>235</ele>
        <time>2012-11-08T15:24:57Z</time>
      </trkpt>
      <trkpt lat="47.06116" lon="5.57043">
        <ele>236</ele>
        <time>2012-11-08T15:25:11Z</time>
      </trkpt>
      <trkpt lat="47.06119" lon="5.5704">
        <ele>236</ele>
        <time>2012-11-08T15:25:13Z</time>
      </trkpt>
      <trkpt lat="47.06134" lon="5.57035">
        <ele>236</ele>
        <time>2012-11-08T15:25:24Z</time>
      </trkpt>
      <trkpt lat="47.06147" lon="5.57026">
        <ele>238</ele>
        <time>2012-11-08T15:25:37Z</time>
      </trkpt>
      <trkpt lat="47.06163" lon="5.57021">
        <ele>238</ele>
        <time>2012-11-08T15:25:51Z</time>
      </trkpt>
      <trkpt lat="47.06173" lon="5.57017">
        <ele>238</ele>
        <time>2012-11-08T15:25:58Z</time>
      </trkpt>
      <trkpt lat="47.06176" lon="5.57017">
        <ele>239</ele>
        <time>2012-11-08T15:26:00Z</time>
      </trkpt>
      <trkpt lat="47.06181" lon="5.57016">
        <ele>239</ele>
        <time>2012-11-08T15:26:05Z</time>
      </trkpt>
      <trkpt lat="47.06193" lon="5.57008">
        <ele>239</ele>
        <time>2012-11-08T15:26:18Z</time>
      </trkpt>
      <trkpt lat="47.062" lon="5.57">
        <ele>240</ele>
        <time>2012-11-08T15:26:25Z</time>
      </trkpt>
      <trkpt lat="47.06203" lon="5.57">
        <ele>240</ele>
        <time>2012-11-08T15:26:28Z</time>
      </trkpt>
      <trkpt lat="47.06224" lon="5.56987">
        <ele>241</ele>
        <time>2012-11-08T15:26:45Z</time>
      </trkpt>
      <trkpt lat="47.06234" lon="5.5698">
        <ele>241</ele>
        <time>2012-11-08T15:26:54Z</time>
      </trkpt>
      <trkpt lat="47.06244" lon="5.56972">
        <ele>241</ele>
        <time>2012-11-08T15:27:03Z</time>
      </trkpt>
      <trkpt lat="47.06252" lon="5.5697">
        <ele>242</ele>
        <time>2012-11-08T15:27:10Z</time>
      </trkpt>
      <trkpt lat="47.06269" lon="5.56964">
        <ele>242</ele>
        <time>2012-11-08T15:27:24Z</time>
      </trkpt>
      <trkpt lat="47.06283" lon="5.56947">
        <ele>243</ele>
        <time>2012-11-08T15:27:37Z</time>
      </trkpt>
      <trkpt lat="47.06301" lon="5.56927">
        <ele>244</ele>
        <time>2012-11-08T15:27:56Z</time>
      </trkpt>
      <trkpt lat="47.06326" lon="5.56923">
        <ele>245</ele>
        <time>2012-11-08T15:28:13Z</time>
      </trkpt>
      <trkpt lat="47.06329" lon="5.56919">
        <ele>245</ele>
        <time>2012-11-08T15:28:16Z</time>
      </trkpt>
      <trkpt lat="47.06332" lon="5.56918">
        <ele>246</ele>
        <time>2012-11-08T15:28:18Z</time>
      </trkpt>
      <trkpt lat="47.06346" lon="5.56917">
        <ele>246</ele>
        <time>2012-11-08T15:28:28Z</time>
      </trkpt>
      <trkpt lat="47.0635" lon="5.56914">
        <ele>246</ele>
        <time>2012-11-08T15:28:31Z</time>
      </trkpt>
      <trkpt lat="47.06368" lon="5.56905">
        <ele>247</ele>
        <time>2012-11-08T15:28:46Z</time>
      </trkpt>
      <trkpt lat="47.0638" lon="5.56893">
        <ele>249</ele>
        <time>2012-11-08T15:28:58Z</time>
      </trkpt>
      <trkpt lat="47.06395" lon="5.56884">
        <ele>250</ele>
        <time>2012-11-08T15:29:14Z</time>
      </trkpt>
      <trkpt lat="47.064" lon="5.56879">
        <ele>251</ele>
        <time>2012-11-08T15:29:20Z</time>
      </trkpt>
      <trkpt lat="47.06405" lon="5.56879">
        <ele>252</ele>
        <time>2012-11-08T15:29:25Z</time>
      </trkpt>
      <trkpt lat="47.06413" lon="5.56878">
        <ele>248</ele>
        <time>2012-11-08T15:29:32Z</time>
      </trkpt>
      <trkpt lat="47.06414" lon="5.56877">
        <ele>254</ele>
        <time>2012-11-08T15:29:33Z</time>
      </trkpt>
      <trkpt lat="47.06427" lon="5.56865">
        <ele>255</ele>
        <time>2012-11-08T15:29:47Z</time>
      </trkpt>
      <trkpt lat="47.06446" lon="5.56861">
        <ele>258</ele>
        <time>2012-11-08T15:30:08Z</time>
      </trkpt>
      <trkpt lat="47.0646" lon="5.56863">
        <ele>259</ele>
        <time>2012-11-08T15:30:25Z</time>
      </trkpt>
      <trkpt lat="47.06462" lon="5.5688">
        <ele>259</ele>
        <time>2012-11-08T15:30:45Z</time>
      </trkpt>
      <trkpt lat="47.06462" lon="5.56885">
        <ele>258</ele>
        <time>2012-11-08T15:31:00Z</time>
      </trkpt>
      <trkpt lat="47.06462" lon="5.56892">
        <ele>257</ele>
        <time>2012-11-08T15:31:14Z</time>
      </trkpt>
      <trkpt lat="47.06462" lon="5.56894">
        <ele>257</ele>
        <time>2012-11-08T15:31:16Z</time>
      </trkpt>
      <trkpt lat="47.06469" lon="5.56916">
        <ele>257</ele>
        <time>2012-11-08T15:31:32Z</time>
      </trkpt>
      <trkpt lat="47.06469" lon="5.56918">
        <ele>257</ele>
        <time>2012-11-08T15:31:33Z</time>
      </trkpt>
      <trkpt lat="47.06472" lon="5.56936">
        <ele>257</ele>
        <time>2012-11-08T15:31:44Z</time>
      </trkpt>
      <trkpt lat="47.06478" lon="5.56959">
        <ele>257</ele>
        <time>2012-11-08T15:31:59Z</time>
      </trkpt>
      <trkpt lat="47.06483" lon="5.56993">
        <ele>256</ele>
        <time>2012-11-08T15:32:18Z</time>
      </trkpt>
      <trkpt lat="47.06488" lon="5.57022">
        <ele>256</ele>
        <time>2012-11-08T15:32:37Z</time>
      </trkpt>
      <trkpt lat="47.06492" lon="5.57036">
        <ele>256</ele>
        <time>2012-11-08T15:32:50Z</time>
      </trkpt>
      <trkpt lat="47.06496" lon="5.57054">
        <ele>257</ele>
        <time>2012-11-08T15:33:03Z</time>
      </trkpt>
      <trkpt lat="47.065" lon="5.57066">
        <ele>257</ele>
        <time>2012-11-08T15:33:12Z</time>
      </trkpt>
      <trkpt lat="47.065" lon="5.57084">
        <ele>256</ele>
        <time>2012-11-08T15:33:24Z</time>
      </trkpt>
      <trkpt lat="47.06505" lon="5.57092">
        <ele>256</ele>
        <time>2012-11-08T15:33:33Z</time>
      </trkpt>
      <trkpt lat="47.06512" lon="5.57113">
        <ele>256</ele>
        <time>2012-11-08T15:33:49Z</time>
      </trkpt>
      <trkpt lat="47.06513" lon="5.57144">
        <ele>256</ele>
        <time>2012-11-08T15:34:10Z</time>
      </trkpt>
      <trkpt lat="47.06517" lon="5.57152">
        <ele>256</ele>
        <time>2012-11-08T15:34:17Z</time>
      </trkpt>
      <trkpt lat="47.06519" lon="5.57174">
        <ele>256</ele>
        <time>2012-11-08T15:34:32Z</time>
      </trkpt>
      <trkpt lat="47.06522" lon="5.57194">
        <ele>256</ele>
        <time>2012-11-08T15:34:47Z</time>
      </trkpt>
      <trkpt lat="47.06523" lon="5.57203">
        <ele>256</ele>
        <time>2012-11-08T15:34:52Z</time>
      </trkpt>
      <trkpt lat="47.0653" lon="5.57222">
        <ele>256</ele>
        <time>2012-11-08T15:35:08Z</time>
      </trkpt>
      <trkpt lat="47.06533" lon="5.57241">
        <ele>254</ele>
        <time>2012-11-08T15:35:24Z</time>
      </trkpt>
      <trkpt lat="47.06533" lon="5.57262">
        <ele>254</ele>
        <time>2012-11-08T15:35:36Z</time>
      </trkpt>
      <trkpt lat="47.06538" lon="5.57308">
        <ele>252</ele>
        <time>2012-11-08T15:35:56Z</time>
      </trkpt>
      <trkpt lat="47.06549" lon="5.57328">
        <ele>253</ele>
        <time>2012-11-08T15:36:15Z</time>
      </trkpt>
      <trkpt lat="47.06558" lon="5.57342">
        <ele>254</ele>
        <time>2012-11-08T15:36:34Z</time>
      </trkpt>
      <trkpt lat="47.06561" lon="5.57382">
        <ele>254</ele>
        <time>2012-11-08T15:36:58Z</time>
      </trkpt>
      <trkpt lat="47.06569" lon="5.57401">
        <ele>253</ele>
        <time>2012-11-08T15:37:13Z</time>
      </trkpt>
      <trkpt lat="47.0657" lon="5.57421">
        <ele>253</ele>
        <time>2012-11-08T15:37:27Z</time>
      </trkpt>
      <trkpt lat="47.0658" lon="5.57448">
        <ele>252</ele>
        <time>2012-11-08T15:37:49Z</time>
      </trkpt>
      <trkpt lat="47.06593" lon="5.57459">
        <ele>253</ele>
        <time>2012-11-08T15:38:11Z</time>
      </trkpt>
      <trkpt lat="47.06614" lon="5.57443">
        <ele>254</ele>
        <time>2012-11-08T15:38:30Z</time>
      </trkpt>
      <trkpt lat="47.06622" lon="5.57415">
        <ele>256</ele>
        <time>2012-11-08T15:38:48Z</time>
      </trkpt>
      <trkpt lat="47.06623" lon="5.57402">
        <ele>256</ele>
        <time>2012-11-08T15:38:54Z</time>
      </trkpt>
      <trkpt lat="47.06626" lon="5.57385">
        <ele>257</ele>
        <time>2012-11-08T15:39:00Z</time>
      </trkpt>
      <trkpt lat="47.06632" lon="5.57373">
        <ele>257</ele>
        <time>2012-11-08T15:39:08Z</time>
      </trkpt>
      <trkpt lat="47.06638" lon="5.57367">
        <ele>257</ele>
        <time>2012-11-08T15:39:16Z</time>
      </trkpt>
      <trkpt lat="47.06642" lon="5.57355">
        <ele>258</ele>
        <time>2012-11-08T15:39:23Z</time>
      </trkpt>
      <trkpt lat="47.06649" lon="5.57338">
        <ele>258</ele>
        <time>2012-11-08T15:39:35Z</time>
      </trkpt>
      <trkpt lat="47.06655" lon="5.57325">
        <ele>259</ele>
        <time>2012-11-08T15:39:40Z</time>
      </trkpt>
      <trkpt lat="47.06656" lon="5.57321">
        <ele>259</ele>
        <time>2012-11-08T15:39:42Z</time>
      </trkpt>
      <trkpt lat="47.06662" lon="5.57302">
        <ele>259</ele>
        <time>2012-11-08T15:39:52Z</time>
      </trkpt>
      <trkpt lat="47.06671" lon="5.57281">
        <ele>259</ele>
        <time>2012-11-08T15:40:08Z</time>
      </trkpt>
      <trkpt lat="47.06679" lon="5.57266">
        <ele>259</ele>
        <time>2012-11-08T15:40:21Z</time>
      </trkpt>
      <trkpt lat="47.06681" lon="5.57262">
        <ele>259</ele>
        <time>2012-11-08T15:40:26Z</time>
      </trkpt>
      <trkpt lat="47.06692" lon="5.57245">
        <ele>259</ele>
        <time>2012-11-08T15:40:39Z</time>
      </trkpt>
      <trkpt lat="47.06706" lon="5.57208">
        <ele>259</ele>
        <time>2012-11-08T15:40:59Z</time>
      </trkpt>
      <trkpt lat="47.06726" lon="5.57182">
        <ele>260</ele>
        <time>2012-11-08T15:41:19Z</time>
      </trkpt>
      <trkpt lat="47.06737" lon="5.57163">
        <ele>261</ele>
        <time>2012-11-08T15:41:36Z</time>
      </trkpt>
      <trkpt lat="47.06753" lon="5.57139">
        <ele>263</ele>
        <time>2012-11-08T15:41:55Z</time>
      </trkpt>
      <trkpt lat="47.06756" lon="5.57132">
        <ele>263</ele>
        <time>2012-11-08T15:42:00Z</time>
      </trkpt>
      <trkpt lat="47.06766" lon="5.57113">
        <ele>263</ele>
        <time>2012-11-08T15:42:15Z</time>
      </trkpt>
      <trkpt lat="47.0677" lon="5.57107">
        <ele>264</ele>
        <time>2012-11-08T15:42:20Z</time>
      </trkpt>
      <trkpt lat="47.0677" lon="5.57097">
        <ele>264</ele>
        <time>2012-11-08T15:42:28Z</time>
      </trkpt>
      <trkpt lat="47.06772" lon="5.57094">
        <ele>263</ele>
        <time>2012-11-08T15:42:31Z</time>
      </trkpt>
      <trkpt lat="47.06773" lon="5.5709">
        <ele>264</ele>
        <time>2012-11-08T15:42:34Z</time>
      </trkpt>
      <trkpt lat="47.06775" lon="5.57084">
        <ele>264</ele>
        <time>2012-11-08T15:42:38Z</time>
      </trkpt>
      <trkpt lat="47.0678" lon="5.5707">
        <ele>264</ele>
        <time>2012-11-08T15:42:46Z</time>
      </trkpt>
      <trkpt lat="47.06783" lon="5.57048">
        <ele>264</ele>
        <time>2012-11-08T15:43:00Z</time>
      </trkpt>
      <trkpt lat="47.06792" lon="5.57034">
        <ele>264</ele>
        <time>2012-11-08T15:43:13Z</time>
      </trkpt>
      <trkpt lat="47.06796" lon="5.57029">
        <ele>264</ele>
        <time>2012-11-08T15:43:18Z</time>
      </trkpt>
      <trkpt lat="47.06802" lon="5.57023">
        <ele>264</ele>
        <time>2012-11-08T15:43:22Z</time>
      </trkpt>
      <trkpt lat="47.06805" lon="5.57014">
        <ele>264</ele>
        <time>2012-11-08T15:43:28Z</time>
      </trkpt>
      <trkpt lat="47.06812" lon="5.57003">
        <ele>263</ele>
        <time>2012-11-08T15:43:36Z</time>
      </trkpt>
      <trkpt lat="47.06817" lon="5.56997">
        <ele>263</ele>
        <time>2012-11-08T15:43:42Z</time>
      </trkpt>
      <trkpt lat="47.06821" lon="5.56987">
        <ele>263</ele>
        <time>2012-11-08T15:43:47Z</time>
      </trkpt>
      <trkpt lat="47.06825" lon="5.56981">
        <ele>263</ele>
        <time>2012-11-08T15:43:51Z</time>
      </trkpt>
      <trkpt lat="47.06832" lon="5.5696">
        <ele>262</ele>
        <time>2012-11-08T15:44:04Z</time>
      </trkpt>
      <trkpt lat="47.0684" lon="5.56939">
        <ele>262</ele>
        <time>2012-11-08T15:44:16Z</time>
      </trkpt>
      <trkpt lat="47.06843" lon="5.56929">
        <ele>261</ele>
        <time>2012-11-08T15:44:23Z</time>
      </trkpt>
      <trkpt lat="47.06848" lon="5.56919">
        <ele>260</ele>
        <time>2012-11-08T15:44:30Z</time>
      </trkpt>
      <trkpt lat="47.06852" lon="5.56907">
        <ele>260</ele>
        <time>2012-11-08T15:44:37Z</time>
      </trkpt>
      <trkpt lat="47.06861" lon="5.5688">
        <ele>258</ele>
        <time>2012-11-08T15:44:54Z</time>
      </trkpt>
      <trkpt lat="47.06871" lon="5.56849">
        <ele>255</ele>
        <time>2012-11-08T15:45:14Z</time>
      </trkpt>
      <trkpt lat="47.0688" lon="5.56828">
        <ele>254</ele>
        <time>2012-11-08T15:45:31Z</time>
      </trkpt>
      <trkpt lat="47.06888" lon="5.56804">
        <ele>253</ele>
        <time>2012-11-08T15:45:44Z</time>
      </trkpt>
      <trkpt lat="47.06901" lon="5.56775">
        <ele>252</ele>
        <time>2012-11-08T15:46:02Z</time>
      </trkpt>
      <trkpt lat="47.06912" lon="5.56758">
        <ele>251</ele>
        <time>2012-11-08T15:46:16Z</time>
      </trkpt>
      <trkpt lat="47.06918" lon="5.56734">
        <ele>251</ele>
        <time>2012-11-08T15:46:33Z</time>
      </trkpt>
      <trkpt lat="47.06931" lon="5.56706">
        <ele>250</ele>
        <time>2012-11-08T15:46:54Z</time>
      </trkpt>
      <trkpt lat="47.06935" lon="5.56692">
        <ele>250</ele>
        <time>2012-11-08T15:47:04Z</time>
      </trkpt>
      <trkpt lat="47.06943" lon="5.56658">
        <ele>250</ele>
        <time>2012-11-08T15:47:23Z</time>
      </trkpt>
      <trkpt lat="47.06949" lon="5.56647">
        <ele>249</ele>
        <time>2012-11-08T15:47:33Z</time>
      </trkpt>
      <trkpt lat="47.06959" lon="5.56626">
        <ele>249</ele>
        <time>2012-11-08T15:47:48Z</time>
      </trkpt>
      <trkpt lat="47.0696" lon="5.56619">
        <ele>249</ele>
        <time>2012-11-08T15:47:53Z</time>
      </trkpt>
      <trkpt lat="47.06961" lon="5.56615">
        <ele>249</ele>
        <time>2012-11-08T15:47:55Z</time>
      </trkpt>
      <trkpt lat="47.06961" lon="5.56612">
        <ele>249</ele>
        <time>2012-11-08T15:47:57Z</time>
      </trkpt>
      <trkpt lat="47.06962" lon="5.56606">
        <ele>249</ele>
        <time>2012-11-08T15:48:00Z</time>
      </trkpt>
      <trkpt lat="47.06961" lon="5.566">
        <ele>249</ele>
        <time>2012-11-08T15:48:03Z</time>
      </trkpt>
      <trkpt lat="47.06962" lon="5.56597">
        <ele>249</ele>
        <time>2012-11-08T15:48:05Z</time>
      </trkpt>
      <trkpt lat="47.06962" lon="5.56589">
        <ele>248</ele>
        <time>2012-11-08T15:48:09Z</time>
      </trkpt>
      <trkpt lat="47.06966" lon="5.56584">
        <ele>248</ele>
        <time>2012-11-08T15:48:13Z</time>
      </trkpt>
      <trkpt lat="47.0697" lon="5.56577">
        <ele>248</ele>
        <time>2012-11-08T15:48:17Z</time>
      </trkpt>
      <trkpt lat="47.06971" lon="5.56574">
        <ele>248</ele>
        <time>2012-11-08T15:48:19Z</time>
      </trkpt>
      <trkpt lat="47.06975" lon="5.56563">
        <ele>248</ele>
        <time>2012-11-08T15:48:26Z</time>
      </trkpt>
      <trkpt lat="47.06975" lon="5.56557">
        <ele>248</ele>
        <time>2012-11-08T15:48:29Z</time>
      </trkpt>
      <trkpt lat="47.06978" lon="5.56551">
        <ele>247</ele>
        <time>2012-11-08T15:48:33Z</time>
      </trkpt>
      <trkpt lat="47.0698" lon="5.56535">
        <ele>247</ele>
        <time>2012-11-08T15:48:45Z</time>
      </trkpt>
      <trkpt lat="47.06989" lon="5.56504">
        <ele>245</ele>
        <time>2012-11-08T15:49:07Z</time>
      </trkpt>
      <trkpt lat="47.06993" lon="5.56479">
        <ele>244</ele>
        <time>2012-11-08T15:49:25Z</time>
      </trkpt>
      <trkpt lat="47.06995" lon="5.56451">
        <ele>243</ele>
        <time>2012-11-08T15:49:42Z</time>
      </trkpt>
      <trkpt lat="47.06996" lon="5.56419">
        <ele>242</ele>
        <time>2012-11-08T15:50:01Z</time>
      </trkpt>
      <trkpt lat="47.06995" lon="5.56397">
        <ele>242</ele>
        <time>2012-11-08T15:50:16Z</time>
      </trkpt>
      <trkpt lat="47.06996" lon="5.56378">
        <ele>242</ele>
        <time>2012-11-08T15:50:26Z</time>
      </trkpt>
      <trkpt lat="47.07003" lon="5.56354">
        <ele>242</ele>
        <time>2012-11-08T15:50:40Z</time>
      </trkpt>
      <trkpt lat="47.0701" lon="5.56345">
        <ele>241</ele>
        <time>2012-11-08T15:50:54Z</time>
      </trkpt>
      <trkpt lat="47.07008" lon="5.56363">
        <ele>240</ele>
        <time>2012-11-08T15:54:24Z</time>
      </trkpt>
      <trkpt lat="47.07003" lon="5.56356">
        <ele>240</ele>
        <time>2012-11-08T15:56:21Z</time>
      </trkpt>
      <trkpt lat="47.06994" lon="5.56344">
        <ele>240</ele>
        <time>2012-11-08T15:57:26Z</time>
      </trkpt>
      <trkpt lat="47.06989" lon="5.56355">
        <ele>241</ele>
        <time>2012-11-08T15:59:22Z</time>
      </trkpt>
      <trkpt lat="47.07013" lon="5.56354">
        <ele>241</ele>
        <time>2012-11-08T16:01:53Z</time>
      </trkpt>
      <trkpt lat="47.07023" lon="5.56371">
        <ele>243</ele>
        <time>2012-11-08T16:02:13Z</time>
      </trkpt>
      <trkpt lat="47.07029" lon="5.56395">
        <ele>244</ele>
        <time>2012-11-08T16:02:27Z</time>
      </trkpt>
      <trkpt lat="47.07036" lon="5.56422">
        <ele>245</ele>
        <time>2012-11-08T16:02:45Z</time>
      </trkpt>
      <trkpt lat="47.07041" lon="5.56445">
        <ele>245</ele>
        <time>2012-11-08T16:02:59Z</time>
      </trkpt>
      <trkpt lat="47.07047" lon="5.56473">
        <ele>246</ele>
        <time>2012-11-08T16:03:17Z</time>
      </trkpt>
      <trkpt lat="47.07047" lon="5.56475">
        <ele>246</ele>
        <time>2012-11-08T16:03:18Z</time>
      </trkpt>
      <trkpt lat="47.07054" lon="5.56501">
        <ele>246</ele>
        <time>2012-11-08T16:03:37Z</time>
      </trkpt>
      <trkpt lat="47.07054" lon="5.56516">
        <ele>247</ele>
        <time>2012-11-08T16:03:43Z</time>
      </trkpt>
      <trkpt lat="47.07063" lon="5.56513">
        <ele>247</ele>
        <time>2012-11-08T16:03:51Z</time>
      </trkpt>
      <trkpt lat="47.07065" lon="5.56508">
        <ele>247</ele>
        <time>2012-11-08T16:03:53Z</time>
      </trkpt>
      <trkpt lat="47.07067" lon="5.56504">
        <ele>246</ele>
        <time>2012-11-08T16:03:55Z</time>
      </trkpt>
      <trkpt lat="47.07075" lon="5.56496">
        <ele>246</ele>
        <time>2012-11-08T16:04:01Z</time>
      </trkpt>
      <trkpt lat="47.07095" lon="5.56488">
        <ele>246</ele>
        <time>2012-11-08T16:04:15Z</time>
      </trkpt>
      <trkpt lat="47.07113" lon="5.56477">
        <ele>245</ele>
        <time>2012-11-08T16:04:28Z</time>
      </trkpt>
      <trkpt lat="47.0713" lon="5.56464">
        <ele>245</ele>
        <time>2012-11-08T16:04:43Z</time>
      </trkpt>
      <trkpt lat="47.07148" lon="5.56451">
        <ele>244</ele>
        <time>2012-11-08T16:04:58Z</time>
      </trkpt>
      <trkpt lat="47.07161" lon="5.56445">
        <ele>243</ele>
        <time>2012-11-08T16:05:10Z</time>
      </trkpt>
      <trkpt lat="47.07181" lon="5.56438">
        <ele>243</ele>
        <time>2012-11-08T16:05:24Z</time>
      </trkpt>
      <trkpt lat="47.07186" lon="5.56434">
        <ele>243</ele>
        <time>2012-11-08T16:05:28Z</time>
      </trkpt>
      <trkpt lat="47.07191" lon="5.56433">
        <ele>243</ele>
        <time>2012-11-08T16:05:31Z</time>
      </trkpt>
      <trkpt lat="47.07213" lon="5.56418">
        <ele>242</ele>
        <time>2012-11-08T16:05:49Z</time>
      </trkpt>
      <trkpt lat="47.07242" lon="5.56402">
        <ele>240</ele>
        <time>2012-11-08T16:06:12Z</time>
      </trkpt>
      <trkpt lat="47.07248" lon="5.564">
        <ele>240</ele>
        <time>2012-11-08T16:06:16Z</time>
      </trkpt>
      <trkpt lat="47.07274" lon="5.56382">
        <ele>241</ele>
        <time>2012-11-08T16:06:39Z</time>
      </trkpt>
      <trkpt lat="47.07292" lon="5.56372">
        <ele>243</ele>
        <time>2012-11-08T16:06:56Z</time>
      </trkpt>
      <trkpt lat="47.07311" lon="5.56362">
        <ele>243</ele>
        <time>2012-11-08T16:07:10Z</time>
      </trkpt>
      <trkpt lat="47.07331" lon="5.56349">
        <ele>243</ele>
        <time>2012-11-08T16:07:24Z</time>
      </trkpt>
      <trkpt lat="47.07337" lon="5.56346">
        <ele>243</ele>
        <time>2012-11-08T16:07:29Z</time>
      </trkpt>
      <trkpt lat="47.07339" lon="5.56345">
        <ele>243</ele>
        <time>2012-11-08T16:07:31Z</time>
      </trkpt>
      <trkpt lat="47.07343" lon="5.56343">
        <ele>243</ele>
        <time>2012-11-08T16:07:35Z</time>
      </trkpt>
      <trkpt lat="47.07353" lon="5.56332">
        <ele>242</ele>
        <time>2012-11-08T16:07:45Z</time>
      </trkpt>
      <trkpt lat="47.07373" lon="5.56325">
        <ele>242</ele>
        <time>2012-11-08T16:07:59Z</time>
      </trkpt>
      <trkpt lat="47.07388" lon="5.56318">
        <ele>241</ele>
        <time>2012-11-08T16:08:12Z</time>
      </trkpt>
      <trkpt lat="47.07401" lon="5.5631">
        <ele>241</ele>
        <time>2012-11-08T16:08:24Z</time>
      </trkpt>
      <trkpt lat="47.07404" lon="5.56312">
        <ele>241</ele>
        <time>2012-11-08T16:08:27Z</time>
      </trkpt>
      <trkpt lat="47.07417" lon="5.56308">
        <ele>240</ele>
        <time>2012-11-08T16:08:39Z</time>
      </trkpt>
      <trkpt lat="47.07434" lon="5.56297">
        <ele>241</ele>
        <time>2012-11-08T16:08:53Z</time>
      </trkpt>
      <trkpt lat="47.07444" lon="5.56291">
        <ele>241</ele>
        <time>2012-11-08T16:09:01Z</time>
      </trkpt>
      <trkpt lat="47.07458" lon="5.5628">
        <ele>242</ele>
        <time>2012-11-08T16:09:10Z</time>
      </trkpt>
      <trkpt lat="47.0746" lon="5.56278">
        <ele>242</ele>
        <time>2012-11-08T16:09:12Z</time>
      </trkpt>
      <trkpt lat="47.07468" lon="5.56275">
        <ele>242</ele>
        <time>2012-11-08T16:09:17Z</time>
      </trkpt>
      <trkpt lat="47.07484" lon="5.56265">
        <ele>242</ele>
        <time>2012-11-08T16:09:32Z</time>
      </trkpt>
      <trkpt lat="47.07499" lon="5.56256">
        <ele>242</ele>
        <time>2012-11-08T16:09:45Z</time>
      </trkpt>
      <trkpt lat="47.07518" lon="5.56245">
        <ele>242</ele>
        <time>2012-11-08T16:10:01Z</time>
      </trkpt>
      <trkpt lat="47.07533" lon="5.56237">
        <ele>242</ele>
        <time>2012-11-08T16:10:13Z</time>
      </trkpt>
      <trkpt lat="47.07548" lon="5.56229">
        <ele>242</ele>
        <time>2012-11-08T16:10:23Z</time>
      </trkpt>
      <trkpt lat="47.07569" lon="5.56217">
        <ele>242</ele>
        <time>2012-11-08T16:10:40Z</time>
      </trkpt>
      <trkpt lat="47.07577" lon="5.56207">
        <ele>242</ele>
        <time>2012-11-08T16:10:47Z</time>
      </trkpt>
      <trkpt lat="47.0758" lon="5.56205">
        <ele>242</ele>
        <time>2012-11-08T16:10:50Z</time>
      </trkpt>
      <trkpt lat="47.07587" lon="5.56203">
        <ele>241</ele>
        <time>2012-11-08T16:10:54Z</time>
      </trkpt>
      <trkpt lat="47.07589" lon="5.56201">
        <ele>241</ele>
        <time>2012-11-08T16:10:57Z</time>
      </trkpt>
      <trkpt lat="47.07598" lon="5.56197">
        <ele>241</ele>
        <time>2012-11-08T16:11:03Z</time>
      </trkpt>
      <trkpt lat="47.07605" lon="5.56195">
        <ele>241</ele>
        <time>2012-11-08T16:11:09Z</time>
      </trkpt>
      <trkpt lat="47.07608" lon="5.56198">
        <ele>241</ele>
        <time>2012-11-08T16:11:11Z</time>
      </trkpt>
      <trkpt lat="47.07629" lon="5.56184">
        <ele>240</ele>
        <time>2012-11-08T16:11:29Z</time>
      </trkpt>
      <trkpt lat="47.07646" lon="5.5617">
        <ele>240</ele>
        <time>2012-11-08T16:11:44Z</time>
      </trkpt>
      <trkpt lat="47.0766" lon="5.56162">
        <ele>239</ele>
        <time>2012-11-08T16:11:55Z</time>
      </trkpt>
      <trkpt lat="47.07672" lon="5.56157">
        <ele>239</ele>
        <time>2012-11-08T16:12:05Z</time>
      </trkpt>
      <trkpt lat="47.07678" lon="5.56153">
        <ele>238</ele>
        <time>2012-11-08T16:12:09Z</time>
      </trkpt>
      <trkpt lat="47.07682" lon="5.56151">
        <ele>239</ele>
        <time>2012-11-08T16:12:12Z</time>
      </trkpt>
      <trkpt lat="47.07688" lon="5.56144">
        <ele>238</ele>
        <time>2012-11-08T16:12:17Z</time>
      </trkpt>
      <trkpt lat="47.07699" lon="5.56144">
        <ele>238</ele>
        <time>2012-11-08T16:12:23Z</time>
      </trkpt>
      <trkpt lat="47.07706" lon="5.56138">
        <ele>238</ele>
        <time>2012-11-08T16:12:28Z</time>
      </trkpt>
      <trkpt lat="47.07708" lon="5.56136">
        <ele>238</ele>
        <time>2012-11-08T16:12:30Z</time>
      </trkpt>
      <trkpt lat="47.07713" lon="5.56135">
        <ele>237</ele>
        <time>2012-11-08T16:12:34Z</time>
      </trkpt>
      <trkpt lat="47.07717" lon="5.5613">
        <ele>238</ele>
        <time>2012-11-08T16:12:37Z</time>
      </trkpt>
      <trkpt lat="47.07737" lon="5.56117">
        <ele>237</ele>
        <time>2012-11-08T16:12:53Z</time>
      </trkpt>
      <trkpt lat="47.07752" lon="5.56105">
        <ele>237</ele>
        <time>2012-11-08T16:13:06Z</time>
      </trkpt>
      <trkpt lat="47.07773" lon="5.56097">
        <ele>237</ele>
        <time>2012-11-08T16:13:21Z</time>
      </trkpt>
      <trkpt lat="47.07795" lon="5.56083">
        <ele>237</ele>
        <time>2012-11-08T16:13:38Z</time>
      </trkpt>
      <trkpt lat="47.0782" lon="5.56068">
        <ele>237</ele>
        <time>2012-11-08T16:13:59Z</time>
      </trkpt>
      <trkpt lat="47.07841" lon="5.56055">
        <ele>236</ele>
        <time>2012-11-08T16:14:17Z</time>
      </trkpt>
      <trkpt lat="47.07861" lon="5.56048">
        <ele>236</ele>
        <time>2012-11-08T16:14:33Z</time>
      </trkpt>
      <trkpt lat="47.07866" lon="5.56044">
        <ele>236</ele>
        <time>2012-11-08T16:14:37Z</time>
      </trkpt>
      <trkpt lat="47.07881" lon="5.56037">
        <ele>235</ele>
        <time>2012-11-08T16:14:49Z</time>
      </trkpt>
      <trkpt lat="47.07887" lon="5.56033">
        <ele>235</ele>
        <time>2012-11-08T16:14:54Z</time>
      </trkpt>
      <trkpt lat="47.07892" lon="5.56032">
        <ele>235</ele>
        <time>2012-11-08T16:14:58Z</time>
      </trkpt>
      <trkpt lat="47.0791" lon="5.56015">
        <ele>234</ele>
        <time>2012-11-08T16:15:13Z</time>
      </trkpt>
      <trkpt lat="47.07914" lon="5.56013">
        <ele>234</ele>
        <time>2012-11-08T16:15:16Z</time>
      </trkpt>
      <trkpt lat="47.07932" lon="5.56">
        <ele>232</ele>
        <time>2012-11-08T16:15:31Z</time>
      </trkpt>
      <trkpt lat="47.07942" lon="5.55995">
        <ele>232</ele>
        <time>2012-11-08T16:15:38Z</time>
      </trkpt>
      <trkpt lat="47.07947" lon="5.55991">
        <ele>231</ele>
        <time>2012-11-08T16:15:43Z</time>
      </trkpt>
      <trkpt lat="47.07963" lon="5.55984">
        <ele>230</ele>
        <time>2012-11-08T16:15:54Z</time>
      </trkpt>
      <trkpt lat="47.07967" lon="5.5598">
        <ele>229</ele>
        <time>2012-11-08T16:15:59Z</time>
      </trkpt>
      <trkpt lat="47.07972" lon="5.55977">
        <ele>229</ele>
        <time>2012-11-08T16:16:03Z</time>
      </trkpt>
      <trkpt lat="47.07982" lon="5.55973">
        <ele>228</ele>
        <time>2012-11-08T16:16:11Z</time>
      </trkpt>
      <trkpt lat="47.07989" lon="5.5597">
        <ele>227</ele>
        <time>2012-11-08T16:16:17Z</time>
      </trkpt>
      <trkpt lat="47.0799" lon="5.55968">
        <ele>227</ele>
        <time>2012-11-08T16:16:19Z</time>
      </trkpt>
      <trkpt lat="47.08002" lon="5.55963">
        <ele>226</ele>
        <time>2012-11-08T16:16:30Z</time>
      </trkpt>
      <trkpt lat="47.08005" lon="5.5596">
        <ele>226</ele>
        <time>2012-11-08T16:16:33Z</time>
      </trkpt>
      <trkpt lat="47.0801" lon="5.55943">
        <ele>225</ele>
        <time>2012-11-08T16:16:48Z</time>
      </trkpt>
      <trkpt lat="47.08008" lon="5.55926">
        <ele>225</ele>
        <time>2012-11-08T16:17:03Z</time>
      </trkpt>
      <trkpt lat="47.08006" lon="5.55908">
        <ele>225</ele>
        <time>2012-11-08T16:17:16Z</time>
      </trkpt>
      <trkpt lat="47.08" lon="5.55895">
        <ele>225</ele>
        <time>2012-11-08T16:17:33Z</time>
      </trkpt>
      <trkpt lat="47.08" lon="5.55885">
        <ele>225</ele>
        <time>2012-11-08T16:17:39Z</time>
      </trkpt>
      <trkpt lat="47.07999" lon="5.5587">
        <ele>224</ele>
        <time>2012-11-08T16:17:54Z</time>
      </trkpt>
      <trkpt lat="47.07997" lon="5.55864">
        <ele>224</ele>
        <time>2012-11-08T16:18:10Z</time>
      </trkpt>
      <trkpt lat="47.07993" lon="5.55854">
        <ele>224</ele>
        <time>2012-11-08T16:18:27Z</time>
      </trkpt>
      <trkpt lat="47.07987" lon="5.55849">
        <ele>224</ele>
        <time>2012-11-08T16:18:38Z</time>
      </trkpt>
      <trkpt lat="47.07985" lon="5.5584">
        <ele>223</ele>
        <time>2012-11-08T16:18:45Z</time>
      </trkpt>
      <trkpt lat="47.07982" lon="5.55822">
        <ele>223</ele>
        <time>2012-11-08T16:18:59Z</time>
      </trkpt>
      <trkpt lat="47.07977" lon="5.55815">
        <ele>223</ele>
        <time>2012-11-08T16:19:08Z</time>
      </trkpt>
      <trkpt lat="47.07979" lon="5.55808">
        <ele>223</ele>
        <time>2012-11-08T16:19:13Z</time>
      </trkpt>
      <trkpt lat="47.07979" lon="5.55804">
        <ele>222</ele>
        <time>2012-11-08T16:19:16Z</time>
      </trkpt>
      <trkpt lat="47.07978" lon="5.55782">
        <ele>221</ele>
        <time>2012-11-08T16:19:30Z</time>
      </trkpt>
      <trkpt lat="47.07975" lon="5.5576">
        <ele>220</ele>
        <time>2012-11-08T16:19:45Z</time>
      </trkpt>
      <trkpt lat="47.07968" lon="5.55744">
        <ele>217</ele>
        <time>2012-11-08T16:20:01Z</time>
      </trkpt>
      <trkpt lat="47.07964" lon="5.55736">
        <ele>214</ele>
        <time>2012-11-08T16:20:14Z</time>
      </trkpt>
      <trkpt lat="47.07969" lon="5.55723">
        <ele>214</ele>
        <time>2012-11-08T16:20:31Z</time>
      </trkpt>
      <trkpt lat="47.07971" lon="5.55716">
        <ele>213</ele>
        <time>2012-11-08T16:20:56Z</time>
      </trkpt>
      <trkpt lat="47.07969" lon="5.55711">
        <ele>213</ele>
        <time>2012-11-08T16:21:17Z</time>
      </trkpt>
      <trkpt lat="47.07958" lon="5.55704">
        <ele>213</ele>
        <time>2012-11-08T16:21:35Z</time>
      </trkpt>
      <trkpt lat="47.07954" lon="5.55691">
        <ele>214</ele>
        <time>2012-11-08T16:21:46Z</time>
      </trkpt>
      <trkpt lat="47.07951" lon="5.55673">
        <ele>216</ele>
        <time>2012-11-08T16:22:03Z</time>
      </trkpt>
      <trkpt lat="47.07949" lon="5.55667">
        <ele>217</ele>
        <time>2012-11-08T16:22:09Z</time>
      </trkpt>
      <trkpt lat="47.07945" lon="5.55646">
        <ele>219</ele>
        <time>2012-11-08T16:22:24Z</time>
      </trkpt>
      <trkpt lat="47.07945" lon="5.55645">
        <ele>219</ele>
        <time>2012-11-08T16:22:26Z</time>
      </trkpt>
      <trkpt lat="47.07939" lon="5.55621">
        <ele>221</ele>
        <time>2012-11-08T16:22:42Z</time>
      </trkpt>
      <trkpt lat="47.07936" lon="5.55612">
        <ele>221</ele>
        <time>2012-11-08T16:22:48Z</time>
      </trkpt>
      <trkpt lat="47.07932" lon="5.55585">
        <ele>222</ele>
        <time>2012-11-08T16:23:03Z</time>
      </trkpt>
      <trkpt lat="47.0793" lon="5.55572">
        <ele>223</ele>
        <time>2012-11-08T16:23:11Z</time>
      </trkpt>
      <trkpt lat="47.07922" lon="5.55541">
        <ele>223</ele>
        <time>2012-11-08T16:23:31Z</time>
      </trkpt>
      <trkpt lat="47.0792" lon="5.55532">
        <ele>224</ele>
        <time>2012-11-08T16:23:37Z</time>
      </trkpt>
      <trkpt lat="47.07914" lon="5.55511">
        <ele>223</ele>
        <time>2012-11-08T16:23:52Z</time>
      </trkpt>
      <trkpt lat="47.07911" lon="5.55483">
        <ele>224</ele>
        <time>2012-11-08T16:24:12Z</time>
      </trkpt>
      <trkpt lat="47.0791" lon="5.5548">
        <ele>224</ele>
        <time>2012-11-08T16:24:14Z</time>
      </trkpt>
      <trkpt lat="47.07902" lon="5.55465">
        <ele>224</ele>
        <time>2012-11-08T16:24:29Z</time>
      </trkpt>
      <trkpt lat="47.079" lon="5.55455">
        <ele>224</ele>
        <time>2012-11-08T16:24:39Z</time>
      </trkpt>
      <trkpt lat="47.07898" lon="5.55432">
        <ele>223</ele>
        <time>2012-11-08T16:24:56Z</time>
      </trkpt>
      <trkpt lat="47.07896" lon="5.5541">
        <ele>220</ele>
        <time>2012-11-08T16:25:14Z</time>
      </trkpt>
      <trkpt lat="47.07895" lon="5.55406">
        <ele>219</ele>
        <time>2012-11-08T16:25:17Z</time>
      </trkpt>
      <trkpt lat="47.07891" lon="5.55388">
        <ele>216</ele>
        <time>2012-11-08T16:25:34Z</time>
      </trkpt>
      <trkpt lat="47.07891" lon="5.55377">
        <ele>216</ele>
        <time>2012-11-08T16:25:51Z</time>
      </trkpt>
      <trkpt lat="47.07886" lon="5.55358">
        <ele>218</ele>
        <time>2012-11-08T16:26:10Z</time>
      </trkpt>
      <trkpt lat="47.07876" lon="5.55346">
        <ele>220</ele>
        <time>2012-11-08T16:26:29Z</time>
      </trkpt>
      <trkpt lat="47.07871" lon="5.55327">
        <ele>223</ele>
        <time>2012-11-08T16:26:46Z</time>
      </trkpt>
      <trkpt lat="47.07868" lon="5.55303">
        <ele>225</ele>
        <time>2012-11-08T16:27:05Z</time>
      </trkpt>
      <trkpt lat="47.07859" lon="5.55278">
        <ele>227</ele>
        <time>2012-11-08T16:27:26Z</time>
      </trkpt>
      <trkpt lat="47.07854" lon="5.5525">
        <ele>228</ele>
        <time>2012-11-08T16:27:41Z</time>
      </trkpt>
      <trkpt lat="47.07852" lon="5.55228">
        <ele>230</ele>
        <time>2012-11-08T16:28:01Z</time>
      </trkpt>
      <trkpt lat="47.07843" lon="5.55192">
        <ele>232</ele>
        <time>2012-11-08T16:28:23Z</time>
      </trkpt>
      <trkpt lat="47.07837" lon="5.55147">
        <ele>234</ele>
        <time>2012-11-08T16:28:49Z</time>
      </trkpt>
      <trkpt lat="47.07827" lon="5.55114">
        <ele>235</ele>
        <time>2012-11-08T16:29:09Z</time>
      </trkpt>
      <trkpt lat="47.07824" lon="5.55089">
        <ele>236</ele>
        <time>2012-11-08T16:29:28Z</time>
      </trkpt>
      <trkpt lat="47.07817" lon="5.5506">
        <ele>236</ele>
        <time>2012-11-08T16:29:47Z</time>
      </trkpt>
      <trkpt lat="47.07813" lon="5.55039">
        <ele>236</ele>
        <time>2012-11-08T16:30:04Z</time>
      </trkpt>
      <trkpt lat="47.07804" lon="5.55007">
        <ele>236</ele>
        <time>2012-11-08T16:30:23Z</time>
      </trkpt>
      <trkpt lat="47.07798" lon="5.5498">
        <ele>235</ele>
        <time>2012-11-08T16:30:40Z</time>
      </trkpt>
      <trkpt lat="47.07797" lon="5.54963">
        <ele>235</ele>
        <time>2012-11-08T16:30:55Z</time>
      </trkpt>
      <trkpt lat="47.07794" lon="5.54934">
        <ele>234</ele>
        <time>2012-11-08T16:31:11Z</time>
      </trkpt>
      <trkpt lat="47.07783" lon="5.54906">
        <ele>233</ele>
        <time>2012-11-08T16:31:31Z</time>
      </trkpt>
      <trkpt lat="47.07776" lon="5.54878">
        <ele>231</ele>
        <time>2012-11-08T16:31:49Z</time>
      </trkpt>
      <trkpt lat="47.07766" lon="5.54844">
        <ele>234</ele>
        <time>2012-11-08T16:32:12Z</time>
      </trkpt>
      <trkpt lat="47.07763" lon="5.5483">
        <ele>234</ele>
        <time>2012-11-08T16:32:27Z</time>
      </trkpt>
      <trkpt lat="47.07752" lon="5.54806">
        <ele>235</ele>
        <time>2012-11-08T16:32:48Z</time>
      </trkpt>
      <trkpt lat="47.07751" lon="5.54785">
        <ele>235</ele>
        <time>2012-11-08T16:33:04Z</time>
      </trkpt>
      <trkpt lat="47.07747" lon="5.54758">
        <ele>235</ele>
        <time>2012-11-08T16:33:20Z</time>
      </trkpt>
      <trkpt lat="47.07746" lon="5.54744">
        <ele>236</ele>
        <time>2012-11-08T16:33:36Z</time>
      </trkpt>
      <trkpt lat="47.07735" lon="5.5473">
        <ele>236</ele>
        <time>2012-11-08T16:34:03Z</time>
      </trkpt>
      <trkpt lat="47.07727" lon="5.54721">
        <ele>236</ele>
        <time>2012-11-08T16:34:49Z</time>
      </trkpt>
      <trkpt lat="47.07749" lon="5.54712">
        <ele>235</ele>
        <time>2012-11-08T16:35:33Z</time>
      </trkpt>
      <trkpt lat="47.07775" lon="5.54698">
        <ele>234</ele>
        <time>2012-11-08T16:35:55Z</time>
      </trkpt>
      <trkpt lat="47.07804" lon="5.54686">
        <ele>232</ele>
        <time>2012-11-08T16:36:18Z</time>
      </trkpt>
      <trkpt lat="47.07821" lon="5.54671">
        <ele>231</ele>
        <time>2012-11-08T16:36:37Z</time>
      </trkpt>
      <trkpt lat="47.07841" lon="5.54657">
        <ele>230</ele>
        <time>2012-11-08T16:36:57Z</time>
      </trkpt>
      <trkpt lat="47.07861" lon="5.54645">
        <ele>229</ele>
        <time>2012-11-08T16:37:13Z</time>
      </trkpt>
      <trkpt lat="47.07885" lon="5.54628">
        <ele>228</ele>
        <time>2012-11-08T16:37:33Z</time>
      </trkpt>
      <trkpt lat="47.07909" lon="5.54614">
        <ele>227</ele>
        <time>2012-11-08T16:37:51Z</time>
      </trkpt>
      <trkpt lat="47.07929" lon="5.54601">
        <ele>225</ele>
        <time>2012-11-08T16:38:11Z</time>
      </trkpt>
      <trkpt lat="47.07939" lon="5.54594">
        <ele>224</ele>
        <time>2012-11-08T16:38:21Z</time>
      </trkpt>
      <trkpt lat="47.07942" lon="5.54593">
        <ele>224</ele>
        <time>2012-11-08T16:38:23Z</time>
      </trkpt>
      <trkpt lat="47.07969" lon="5.54582">
        <ele>221</ele>
        <time>2012-11-08T16:38:42Z</time>
      </trkpt>
      <trkpt lat="47.07983" lon="5.54571">
        <ele>220</ele>
        <time>2012-11-08T16:38:57Z</time>
      </trkpt>
      <trkpt lat="47.07995" lon="5.54563">
        <ele>220</ele>
        <time>2012-11-08T16:39:10Z</time>
      </trkpt>
      <trkpt lat="47.08016" lon="5.54551">
        <ele>221</ele>
        <time>2012-11-08T16:39:26Z</time>
      </trkpt>
      <trkpt lat="47.08021" lon="5.54526">
        <ele>221</ele>
        <time>2012-11-08T16:39:48Z</time>
      </trkpt>
      <trkpt lat="47.08014" lon="5.54497">
        <ele>219</ele>
        <time>2012-11-08T16:40:10Z</time>
      </trkpt>
      <trkpt lat="47.0801" lon="5.54475">
        <ele>217</ele>
        <time>2012-11-08T16:40:27Z</time>
      </trkpt>
      <trkpt lat="47.08006" lon="5.54445">
        <ele>215</ele>
        <time>2012-11-08T16:40:50Z</time>
      </trkpt>
      <trkpt lat="47.07992" lon="5.54437">
        <ele>215</ele>
        <time>2012-11-08T16:41:15Z</time>
      </trkpt>
      <trkpt lat="47.07985" lon="5.54411">
        <ele>216</ele>
        <time>2012-11-08T16:41:29Z</time>
      </trkpt>
      <trkpt lat="47.0798" lon="5.54384">
        <ele>215</ele>
        <time>2012-11-08T16:41:56Z</time>
      </trkpt>
      <trkpt lat="47.07978" lon="5.54355">
        <ele>217</ele>
        <time>2012-11-08T16:42:13Z</time>
      </trkpt>
      <trkpt lat="47.07971" lon="5.54323">
        <ele>219</ele>
        <time>2012-11-08T16:42:32Z</time>
      </trkpt>
      <trkpt lat="47.07972" lon="5.54302">
        <ele>221</ele>
        <time>2012-11-08T16:42:50Z</time>
      </trkpt>
      <trkpt lat="47.07956" lon="5.54265">
        <ele>223</ele>
        <time>2012-11-08T16:43:11Z</time>
      </trkpt>
      <trkpt lat="47.07954" lon="5.54231">
        <ele>225</ele>
        <time>2012-11-08T16:43:30Z</time>
      </trkpt>
      <trkpt lat="47.07944" lon="5.54205">
        <ele>227</ele>
        <time>2012-11-08T16:43:53Z</time>
      </trkpt>
      <trkpt lat="47.07934" lon="5.54171">
        <ele>228</ele>
        <time>2012-11-08T16:44:17Z</time>
      </trkpt>
      <trkpt lat="47.07934" lon="5.54156">
        <ele>229</ele>
        <time>2012-11-08T16:44:25Z</time>
      </trkpt>
      <trkpt lat="47.07924" lon="5.54119">
        <ele>230</ele>
        <time>2012-11-08T16:44:46Z</time>
      </trkpt>
      <trkpt lat="47.07918" lon="5.54089">
        <ele>231</ele>
        <time>2012-11-08T16:45:07Z</time>
      </trkpt>
      <trkpt lat="47.0791" lon="5.54058">
        <ele>231</ele>
        <time>2012-11-08T16:45:28Z</time>
      </trkpt>
      <trkpt lat="47.07901" lon="5.54025">
        <ele>230</ele>
        <time>2012-11-08T16:45:47Z</time>
      </trkpt>
      <trkpt lat="47.0789" lon="5.54001">
        <ele>229</ele>
        <time>2012-11-08T16:46:05Z</time>
      </trkpt>
      <trkpt lat="47.07887" lon="5.53976">
        <ele>228</ele>
        <time>2012-11-08T16:46:19Z</time>
      </trkpt>
      <trkpt lat="47.07881" lon="5.53956">
        <ele>227</ele>
        <time>2012-11-08T16:46:35Z</time>
      </trkpt>
      <trkpt lat="47.07882" lon="5.53958">
        <ele>227</ele>
        <time>2012-11-08T16:47:15Z</time>
      </trkpt>
      <trkpt lat="47.07893" lon="5.53939">
        <ele>227</ele>
        <time>2012-11-08T16:47:37Z</time>
      </trkpt>
      <trkpt lat="47.0791" lon="5.53938">
        <ele>227</ele>
        <time>2012-11-08T16:47:56Z</time>
      </trkpt>
      <trkpt lat="47.07921" lon="5.53931">
        <ele>226</ele>
        <time>2012-11-08T16:48:08Z</time>
      </trkpt>
      <trkpt lat="47.07929" lon="5.53922">
        <ele>226</ele>
        <time>2012-11-08T16:48:23Z</time>
      </trkpt>
      <trkpt lat="47.07932" lon="5.53919">
        <ele>227</ele>
        <time>2012-11-08T16:48:27Z</time>
      </trkpt>
      <trkpt lat="47.07941" lon="5.5391">
        <ele>227</ele>
        <time>2012-11-08T16:48:40Z</time>
      </trkpt>
      <trkpt lat="47.07956" lon="5.53903">
        <ele>226</ele>
        <time>2012-11-08T16:48:56Z</time>
      </trkpt>
      <trkpt lat="47.08001" lon="5.53879">
        <ele>224</ele>
        <time>2012-11-08T16:49:28Z</time>
      </trkpt>
      <trkpt lat="47.08017" lon="5.53862">
        <ele>222</ele>
        <time>2012-11-08T16:49:48Z</time>
      </trkpt>
      <trkpt lat="47.08031" lon="5.53857">
        <ele>222</ele>
        <time>2012-11-08T16:50:01Z</time>
      </trkpt>
      <trkpt lat="47.08038" lon="5.53847">
        <ele>221</ele>
        <time>2012-11-08T16:50:13Z</time>
      </trkpt>
      <trkpt lat="47.08031" lon="5.53838">
        <ele>219</ele>
        <time>2012-11-08T16:50:25Z</time>
      </trkpt>
      <trkpt lat="47.08032" lon="5.53828">
        <ele>216</ele>
        <time>2012-11-08T16:50:45Z</time>
      </trkpt>
      <trkpt lat="47.08029" lon="5.53816">
        <ele>213</ele>
        <time>2012-11-08T16:50:58Z</time>
      </trkpt>
      <trkpt lat="47.08022" lon="5.53802">
        <ele>210</ele>
        <time>2012-11-08T16:51:12Z</time>
      </trkpt>
      <trkpt lat="47.08023" lon="5.53787">
        <ele>206</ele>
        <time>2012-11-08T16:51:24Z</time>
      </trkpt>
      <trkpt lat="47.08038" lon="5.53774">
        <ele>205</ele>
        <time>2012-11-08T16:51:51Z</time>
      </trkpt>
      <trkpt lat="47.08021" lon="5.53756">
        <ele>205</ele>
        <time>2012-11-08T16:52:18Z</time>
      </trkpt>
      <trkpt lat="47.08015" lon="5.53744">
        <ele>209</ele>
        <time>2012-11-08T16:52:38Z</time>
      </trkpt>
      <trkpt lat="47.08013" lon="5.53728">
        <ele>212</ele>
        <time>2012-11-08T16:52:53Z</time>
      </trkpt>
      <trkpt lat="47.08002" lon="5.537">
        <ele>215</ele>
        <time>2012-11-08T16:53:11Z</time>
      </trkpt>
      <trkpt lat="47.07991" lon="5.53665">
        <ele>217</ele>
        <time>2012-11-08T16:53:32Z</time>
      </trkpt>
      <trkpt lat="47.07987" lon="5.53638">
        <ele>219</ele>
        <time>2012-11-08T16:53:50Z</time>
      </trkpt>
      <trkpt lat="47.07985" lon="5.53617">
        <ele>220</ele>
        <time>2012-11-08T16:54:04Z</time>
      </trkpt>
      <trkpt lat="47.07978" lon="5.53594">
        <ele>222</ele>
        <time>2012-11-08T16:54:23Z</time>
      </trkpt>
      <trkpt lat="47.0797" lon="5.5356">
        <ele>224</ele>
        <time>2012-11-08T16:54:43Z</time>
      </trkpt>
      <trkpt lat="47.07964" lon="5.53526">
        <ele>225</ele>
        <time>2012-11-08T16:55:05Z</time>
      </trkpt>
      <trkpt lat="47.07956" lon="5.53493">
        <ele>227</ele>
        <time>2012-11-08T16:55:27Z</time>
      </trkpt>
      <trkpt lat="47.07948" lon="5.53464">
        <ele>227</ele>
        <time>2012-11-08T16:55:46Z</time>
      </trkpt>
      <trkpt lat="47.07944" lon="5.53436">
        <ele>228</ele>
        <time>2012-11-08T16:56:05Z</time>
      </trkpt>
      <trkpt lat="47.07939" lon="5.534">
        <ele>228</ele>
        <time>2012-11-08T16:56:25Z</time>
      </trkpt>
      <trkpt lat="47.07929" lon="5.53372">
        <ele>228</ele>
        <time>2012-11-08T16:56:46Z</time>
      </trkpt>
      <trkpt lat="47.07925" lon="5.53347">
        <ele>228</ele>
        <time>2012-11-08T16:57:04Z</time>
      </trkpt>
      <trkpt lat="47.07913" lon="5.53298">
        <ele>226</ele>
        <time>2012-11-08T16:57:30Z</time>
      </trkpt>
      <trkpt lat="47.07902" lon="5.5326">
        <ele>224</ele>
        <time>2012-11-08T16:57:53Z</time>
      </trkpt>
      <trkpt lat="47.07902" lon="5.53226">
        <ele>221</ele>
        <time>2012-11-08T16:58:15Z</time>
      </trkpt>
      <trkpt lat="47.07923" lon="5.53211">
        <ele>218</ele>
        <time>2012-11-08T16:58:33Z</time>
      </trkpt>
      <trkpt lat="47.07948" lon="5.532">
        <ele>216</ele>
        <time>2012-11-08T16:58:50Z</time>
      </trkpt>
      <trkpt lat="47.0795" lon="5.532">
        <ele>215</ele>
        <time>2012-11-08T16:58:52Z</time>
      </trkpt>
      <trkpt lat="47.07967" lon="5.53187">
        <ele>213</ele>
        <time>2012-11-08T16:59:07Z</time>
      </trkpt>
      <trkpt lat="47.07973" lon="5.53182">
        <ele>210</ele>
        <time>2012-11-08T16:59:20Z</time>
      </trkpt>
      <trkpt lat="47.07983" lon="5.5318">
        <ele>210</ele>
        <time>2012-11-08T16:59:29Z</time>
      </trkpt>
      <trkpt lat="47.07985" lon="5.53178">
        <ele>209</ele>
        <time>2012-11-08T16:59:30Z</time>
      </trkpt>
      <trkpt lat="47.08002" lon="5.53169">
        <ele>208</ele>
        <time>2012-11-08T16:59:39Z</time>
      </trkpt>
      <trkpt lat="47.08013" lon="5.53145">
        <ele>205</ele>
        <time>2012-11-08T16:59:56Z</time>
      </trkpt>
      <trkpt lat="47.08032" lon="5.53129">
        <ele>203</ele>
        <time>2012-11-08T17:00:17Z</time>
      </trkpt>
      <trkpt lat="47.08059" lon="5.53107">
        <ele>201</ele>
        <time>2012-11-08T17:00:41Z</time>
      </trkpt>
      <trkpt lat="47.08078" lon="5.53086">
        <ele>200</ele>
        <time>2012-11-08T17:01:02Z</time>
      </trkpt>
      <trkpt lat="47.0811" lon="5.53078">
        <ele>199</ele>
        <time>2012-11-08T17:01:27Z</time>
      </trkpt>
      <trkpt lat="47.08135" lon="5.53061">
        <ele>199</ele>
        <time>2012-11-08T17:01:44Z</time>
      </trkpt>
      <trkpt lat="47.08155" lon="5.53039">
        <ele>199</ele>
        <time>2012-11-08T17:02:04Z</time>
      </trkpt>
      <trkpt lat="47.08181" lon="5.5302">
        <ele>198</ele>
        <time>2012-11-08T17:02:22Z</time>
      </trkpt>
      <trkpt lat="47.08183" lon="5.53016">
        <ele>198</ele>
        <time>2012-11-08T17:02:24Z</time>
      </trkpt>
      <trkpt lat="47.08206" lon="5.53008">
        <ele>198</ele>
        <time>2012-11-08T17:02:41Z</time>
      </trkpt>
      <trkpt lat="47.08219" lon="5.53009">
        <ele>198</ele>
        <time>2012-11-08T17:02:46Z</time>
      </trkpt>
      <trkpt lat="47.08241" lon="5.53012">
        <ele>198</ele>
        <time>2012-11-08T17:02:59Z</time>
      </trkpt>
      <trkpt lat="47.08254" lon="5.53013">
        <ele>198</ele>
        <time>2012-11-08T17:03:06Z</time>
      </trkpt>
      <trkpt lat="47.08258" lon="5.52998">
        <ele>198</ele>
        <time>2012-11-08T17:03:17Z</time>
      </trkpt>
      <trkpt lat="47.08243" lon="5.52982">
        <ele>198</ele>
        <time>2012-11-08T17:03:32Z</time>
      </trkpt>
      <trkpt lat="47.08231" lon="5.52957">
        <ele>202</ele>
        <time>2012-11-08T17:03:54Z</time>
      </trkpt>
      <trkpt lat="47.0823" lon="5.52947">
        <ele>205</ele>
        <time>2012-11-08T17:04:10Z</time>
      </trkpt>
      <trkpt lat="47.08224" lon="5.5293">
        <ele>207</ele>
        <time>2012-11-08T17:04:26Z</time>
      </trkpt>
      <trkpt lat="47.08224" lon="5.5291">
        <ele>208</ele>
        <time>2012-11-08T17:04:39Z</time>
      </trkpt>
      <trkpt lat="47.0822" lon="5.52887">
        <ele>208</ele>
        <time>2012-11-08T17:04:55Z</time>
      </trkpt>
      <trkpt lat="47.08215" lon="5.52861">
        <ele>207</ele>
        <time>2012-11-08T17:05:12Z</time>
      </trkpt>
      <trkpt lat="47.08204" lon="5.52843">
        <ele>206</ele>
        <time>2012-11-08T17:05:30Z</time>
      </trkpt>
      <trkpt lat="47.08193" lon="5.52809">
        <ele>207</ele>
        <time>2012-11-08T17:05:50Z</time>
      </trkpt>
      <trkpt lat="47.08175" lon="5.52785">
        <ele>208</ele>
        <time>2012-11-08T17:06:11Z</time>
      </trkpt>
      <trkpt lat="47.08164" lon="5.52758">
        <ele>209</ele>
        <time>2012-11-08T17:06:26Z</time>
      </trkpt>
      <trkpt lat="47.08158" lon="5.52727">
        <ele>208</ele>
        <time>2012-11-08T17:06:45Z</time>
      </trkpt>
      <trkpt lat="47.08152" lon="5.5271">
        <ele>208</ele>
        <time>2012-11-08T17:06:59Z</time>
      </trkpt>
      <trkpt lat="47.0815" lon="5.52708">
        <ele>209</ele>
        <time>2012-11-08T17:07:00Z</time>
      </trkpt>
      <trkpt lat="47.0814" lon="5.52688">
        <ele>207</ele>
        <time>2012-11-08T17:07:17Z</time>
      </trkpt>
      <trkpt lat="47.08137" lon="5.52682">
        <ele>209</ele>
        <time>2012-11-08T17:07:21Z</time>
      </trkpt>
      <trkpt lat="47.08129" lon="5.52659">
        <ele>209</ele>
        <time>2012-11-08T17:07:37Z</time>
      </trkpt>
      <trkpt lat="47.08112" lon="5.52624">
        <ele>207</ele>
        <time>2012-11-08T17:08:01Z</time>
      </trkpt>
      <trkpt lat="47.08098" lon="5.52588">
        <ele>207</ele>
        <time>2012-11-08T17:08:22Z</time>
      </trkpt>
      <trkpt lat="47.08086" lon="5.52553">
        <ele>207</ele>
        <time>2012-11-08T17:08:44Z</time>
      </trkpt>
      <trkpt lat="47.08074" lon="5.52534">
        <ele>207</ele>
        <time>2012-11-08T17:09:01Z</time>
      </trkpt>
      <trkpt lat="47.08061" lon="5.5251">
        <ele>206</ele>
        <time>2012-11-08T17:09:20Z</time>
      </trkpt>
      <trkpt lat="47.08047" lon="5.52477">
        <ele>206</ele>
        <time>2012-11-08T17:09:40Z</time>
      </trkpt>
      <trkpt lat="47.08039" lon="5.52462">
        <ele>205</ele>
        <time>2012-11-08T17:10:00Z</time>
      </trkpt>
      <trkpt lat="47.0802" lon="5.52467">
        <ele>207</ele>
        <time>2012-11-08T17:10:36Z</time>
      </trkpt>
      <trkpt lat="47.0801" lon="5.52474">
        <ele>210</ele>
        <time>2012-11-08T17:10:51Z</time>
      </trkpt>
      <trkpt lat="47.07999" lon="5.52482">
        <ele>213</ele>
        <time>2012-11-08T17:11:09Z</time>
      </trkpt>
      <trkpt lat="47.07991" lon="5.52489">
        <ele>215</ele>
        <time>2012-11-08T17:11:25Z</time>
      </trkpt>
      <trkpt lat="47.0798" lon="5.52493">
        <ele>218</ele>
        <time>2012-11-08T17:11:44Z</time>
      </trkpt>
      <trkpt lat="47.07968" lon="5.52494">
        <ele>221</ele>
        <time>2012-11-08T17:12:01Z</time>
      </trkpt>
      <trkpt lat="47.07954" lon="5.52498">
        <ele>224</ele>
        <time>2012-11-08T17:12:17Z</time>
      </trkpt>
      <trkpt lat="47.07944" lon="5.52483">
        <ele>224</ele>
        <time>2012-11-08T17:12:37Z</time>
      </trkpt>
      <trkpt lat="47.07931" lon="5.52461">
        <ele>224</ele>
        <time>2012-11-08T17:12:55Z</time>
      </trkpt>
      <trkpt lat="47.07922" lon="5.52447">
        <ele>224</ele>
        <time>2012-11-08T17:13:07Z</time>
      </trkpt>
      <trkpt lat="47.07907" lon="5.52419">
        <ele>224</ele>
        <time>2012-11-08T17:13:25Z</time>
      </trkpt>
      <trkpt lat="47.07894" lon="5.52406">
        <ele>224</ele>
        <time>2012-11-08T17:13:42Z</time>
      </trkpt>
      <trkpt lat="47.07884" lon="5.52385">
        <ele>222</ele>
        <time>2012-11-08T17:14:04Z</time>
      </trkpt>
      <trkpt lat="47.07875" lon="5.52354">
        <ele>219</ele>
        <time>2012-11-08T17:14:21Z</time>
      </trkpt>
      <trkpt lat="47.07867" lon="5.52324">
        <ele>218</ele>
        <time>2012-11-08T17:14:40Z</time>
      </trkpt>
      <trkpt lat="47.07855" lon="5.52307">
        <ele>221</ele>
        <time>2012-11-08T17:14:56Z</time>
      </trkpt>
      <trkpt lat="47.07846" lon="5.52299">
        <ele>223</ele>
        <time>2012-11-08T17:15:04Z</time>
      </trkpt>
      <trkpt lat="47.07839" lon="5.52298">
        <ele>223</ele>
        <time>2012-11-08T17:15:09Z</time>
      </trkpt>
      <trkpt lat="47.07837" lon="5.52302">
        <ele>223</ele>
        <time>2012-11-08T17:15:12Z</time>
      </trkpt>
      <trkpt lat="47.07823" lon="5.52307">
        <ele>225</ele>
        <time>2012-11-08T17:15:24Z</time>
      </trkpt>
      <trkpt lat="47.07806" lon="5.52321">
        <ele>226</ele>
        <time>2012-11-08T17:15:40Z</time>
      </trkpt>
      <trkpt lat="47.07789" lon="5.52327">
        <ele>226</ele>
        <time>2012-11-08T17:15:53Z</time>
      </trkpt>
      <trkpt lat="47.07774" lon="5.52337">
        <ele>226</ele>
        <time>2012-11-08T17:16:09Z</time>
      </trkpt>
      <trkpt lat="47.07761" lon="5.52345">
        <ele>226</ele>
        <time>2012-11-08T17:16:17Z</time>
      </trkpt>
      <trkpt lat="47.07758" lon="5.52347">
        <ele>226</ele>
        <time>2012-11-08T17:16:20Z</time>
      </trkpt>
      <trkpt lat="47.07742" lon="5.52359">
        <ele>226</ele>
        <time>2012-11-08T17:16:37Z</time>
      </trkpt>
      <trkpt lat="47.07738" lon="5.5236">
        <ele>226</ele>
        <time>2012-11-08T17:16:39Z</time>
      </trkpt>
      <trkpt lat="47.07729" lon="5.52366">
        <ele>226</ele>
        <time>2012-11-08T17:16:45Z</time>
      </trkpt>
      <trkpt lat="47.07724" lon="5.52369">
        <ele>226</ele>
        <time>2012-11-08T17:16:49Z</time>
      </trkpt>
      <trkpt lat="47.07709" lon="5.52378">
        <ele>226</ele>
        <time>2012-11-08T17:17:00Z</time>
      </trkpt>
      <trkpt lat="47.07684" lon="5.52379">
        <ele>225</ele>
        <time>2012-11-08T17:17:22Z</time>
      </trkpt>
      <trkpt lat="47.07666" lon="5.52357">
        <ele>225</ele>
        <time>2012-11-08T17:17:40Z</time>
      </trkpt>
      <trkpt lat="47.07656" lon="5.52325">
        <ele>225</ele>
        <time>2012-11-08T17:18:08Z</time>
      </trkpt>
      <trkpt lat="47.07668" lon="5.52295">
        <ele>225</ele>
        <time>2012-11-08T17:18:32Z</time>
      </trkpt>
      <trkpt lat="47.07659" lon="5.52253">
        <ele>225</ele>
        <time>2012-11-08T17:18:57Z</time>
      </trkpt>
      <trkpt lat="47.07641" lon="5.5224">
        <ele>225</ele>
        <time>2012-11-08T17:19:14Z</time>
      </trkpt>
      <trkpt lat="47.07621" lon="5.52224">
        <ele>225</ele>
        <time>2012-11-08T17:19:35Z</time>
      </trkpt>
      <trkpt lat="47.0759" lon="5.52209">
        <ele>224</ele>
        <time>2012-11-08T17:20:00Z</time>
      </trkpt>
      <trkpt lat="47.07558" lon="5.52193">
        <ele>223</ele>
        <time>2012-11-08T17:20:28Z</time>
      </trkpt>
      <trkpt lat="47.07541" lon="5.52185">
        <ele>223</ele>
        <time>2012-11-08T17:20:46Z</time>
      </trkpt>
      <trkpt lat="47.07525" lon="5.52201">
        <ele>224</ele>
        <time>2012-11-08T17:20:59Z</time>
      </trkpt>
      <trkpt lat="47.07521" lon="5.52227">
        <ele>223</ele>
        <time>2012-11-08T17:21:14Z</time>
      </trkpt>
      <trkpt lat="47.07513" lon="5.52252">
        <ele>223</ele>
        <time>2012-11-08T17:21:29Z</time>
      </trkpt>
      <trkpt lat="47.0751" lon="5.52261">
        <ele>223</ele>
        <time>2012-11-08T17:21:36Z</time>
      </trkpt>
      <trkpt lat="47.07498" lon="5.52288">
        <ele>223</ele>
        <time>2012-11-08T17:21:54Z</time>
      </trkpt>
      <trkpt lat="47.07487" lon="5.52309">
        <ele>223</ele>
        <time>2012-11-08T17:22:08Z</time>
      </trkpt>
      <trkpt lat="47.07484" lon="5.52318">
        <ele>223</ele>
        <time>2012-11-08T17:22:12Z</time>
      </trkpt>
      <trkpt lat="47.07482" lon="5.52322">
        <ele>223</ele>
        <time>2012-11-08T17:22:14Z</time>
      </trkpt>
      <trkpt lat="47.07477" lon="5.52345">
        <ele>224</ele>
        <time>2012-11-08T17:22:29Z</time>
      </trkpt>
      <trkpt lat="47.07468" lon="5.52374">
        <ele>225</ele>
        <time>2012-11-08T17:22:46Z</time>
      </trkpt>
      <trkpt lat="47.07465" lon="5.52386">
        <ele>225</ele>
        <time>2012-11-08T17:22:55Z</time>
      </trkpt>
      <trkpt lat="47.0746" lon="5.52401">
        <ele>225</ele>
        <time>2012-11-08T17:23:04Z</time>
      </trkpt>
      <trkpt lat="47.07456" lon="5.52412">
        <ele>226</ele>
        <time>2012-11-08T17:23:10Z</time>
      </trkpt>
      <trkpt lat="47.07453" lon="5.5242">
        <ele>226</ele>
        <time>2012-11-08T17:23:14Z</time>
      </trkpt>
      <trkpt lat="47.0745" lon="5.52441">
        <ele>227</ele>
        <time>2012-11-08T17:23:27Z</time>
      </trkpt>
      <trkpt lat="47.07442" lon="5.5247">
        <ele>227</ele>
        <time>2012-11-08T17:23:45Z</time>
      </trkpt>
      <trkpt lat="47.07442" lon="5.52477">
        <ele>227</ele>
        <time>2012-11-08T17:23:49Z</time>
      </trkpt>
      <trkpt lat="47.07441" lon="5.52483">
        <ele>227</ele>
        <time>2012-11-08T17:23:52Z</time>
      </trkpt>
      <trkpt lat="47.0744" lon="5.52489">
        <ele>227</ele>
        <time>2012-11-08T17:24:05Z</time>
      </trkpt>
      <trkpt lat="47.07439" lon="5.52487">
        <ele>227</ele>
        <time>2012-11-08T17:24:16Z</time>
      </trkpt>
    </trkseg>
  </trk>
</gpx>